<?xml version="1.0" encoding="UTF-8" standalone="no" ?>
<gpx xmlns="http://www.topografix.com/GPX/1/1" xmlns:xsi="http://www.w3.org/2001/XMLSchema-instance" xsi:schemaLocation="http://www.topografix.com/GPX/1/1 http://www.topografix.com/GPX/1/1/gpx.xsd" version="1.1" creator="VisuGPX - https://www.visugpx.com">
  <metadata>
    <name>83 - L - Carcès</name>
    <desc><![CDATA[83 - L - Carcès - le village, le canal de Ste-Croix ]]></desc>
  </metadata>
  <trk>
    <name><![CDATA[83 - L - Carcès_1]]></name>
    <trkseg>
      <trkpt lat="43.47747" lon="6.18397">
        <ele>133</ele>
        <time>2024-01-28T09:29:30+01:00</time>
      </trkpt>
      <trkpt lat="43.47747" lon="6.18404">
        <ele>134</ele>
        <time>2024-01-28T09:29:44+01:00</time>
      </trkpt>
      <trkpt lat="43.47746" lon="6.18411">
        <ele>134</ele>
        <time>2024-01-28T09:29:46+01:00</time>
      </trkpt>
      <trkpt lat="43.47746" lon="6.18428">
        <ele>134</ele>
        <time>2024-01-28T09:30:00+01:00</time>
      </trkpt>
      <trkpt lat="43.47748" lon="6.18438">
        <ele>132</ele>
        <time>2024-01-28T09:35:03+01:00</time>
      </trkpt>
      <trkpt lat="43.47746" lon="6.18448">
        <ele>132</ele>
        <time>2024-01-28T09:35:16+01:00</time>
      </trkpt>
      <trkpt lat="43.47741" lon="6.18458">
        <ele>133</ele>
        <time>2024-01-28T09:35:25+01:00</time>
      </trkpt>
      <trkpt lat="43.47733" lon="6.18471">
        <ele>134</ele>
        <time>2024-01-28T09:35:31+01:00</time>
      </trkpt>
      <trkpt lat="43.47727" lon="6.1848">
        <ele>135</ele>
        <time>2024-01-28T09:35:39+01:00</time>
      </trkpt>
      <trkpt lat="43.47721" lon="6.18483">
        <ele>135</ele>
        <time>2024-01-28T09:35:56+01:00</time>
      </trkpt>
      <trkpt lat="43.47722" lon="6.18492">
        <ele>135</ele>
        <time>2024-01-28T09:35:45+01:00</time>
      </trkpt>
      <trkpt lat="43.47726" lon="6.18504">
        <ele>135</ele>
        <time>2024-01-28T09:35:52+01:00</time>
      </trkpt>
      <trkpt lat="43.47728" lon="6.18517">
        <ele>135</ele>
        <time>2024-01-28T09:36:01+01:00</time>
      </trkpt>
      <trkpt lat="43.47733" lon="6.18529">
        <ele>135</ele>
        <time>2024-01-28T09:36:08+01:00</time>
      </trkpt>
      <trkpt lat="43.47735" lon="6.18541">
        <ele>134</ele>
        <time>2024-01-28T09:36:15+01:00</time>
      </trkpt>
      <trkpt lat="43.47734" lon="6.18554">
        <ele>134</ele>
        <time>2024-01-28T09:36:23+01:00</time>
      </trkpt>
      <trkpt lat="43.47733" lon="6.18568">
        <ele>134</ele>
        <time>2024-01-28T09:36:33+01:00</time>
      </trkpt>
      <trkpt lat="43.47731" lon="6.1858">
        <ele>134</ele>
        <time>2024-01-28T09:36:44+01:00</time>
      </trkpt>
      <trkpt lat="43.47732" lon="6.18593">
        <ele>133</ele>
        <time>2024-01-28T09:36:55+01:00</time>
      </trkpt>
      <trkpt lat="43.47732" lon="6.18606">
        <ele>133</ele>
        <time>2024-01-28T09:37:03+01:00</time>
      </trkpt>
      <trkpt lat="43.47733" lon="6.1862">
        <ele>132</ele>
        <time>2024-01-28T09:37:12+01:00</time>
      </trkpt>
      <trkpt lat="43.47737" lon="6.18631">
        <ele>132</ele>
        <time>2024-01-28T09:37:21+01:00</time>
      </trkpt>
      <trkpt lat="43.47728" lon="6.18637">
        <ele>131</ele>
        <time>2024-01-28T09:37:31+01:00</time>
      </trkpt>
      <trkpt lat="43.47719" lon="6.1864">
        <ele>130</ele>
        <time>2024-01-28T09:37:39+01:00</time>
      </trkpt>
      <trkpt lat="43.47711" lon="6.1865">
        <ele>129</ele>
        <time>2024-01-28T09:37:46+01:00</time>
      </trkpt>
      <trkpt lat="43.47705" lon="6.18661">
        <ele>129</ele>
        <time>2024-01-28T09:37:54+01:00</time>
      </trkpt>
      <trkpt lat="43.47698" lon="6.18671">
        <ele>128</ele>
        <time>2024-01-28T09:38:02+01:00</time>
      </trkpt>
      <trkpt lat="43.47693" lon="6.18683">
        <ele>127</ele>
        <time>2024-01-28T09:38:13+01:00</time>
      </trkpt>
      <trkpt lat="43.47685" lon="6.18691">
        <ele>126</ele>
        <time>2024-01-28T09:38:23+01:00</time>
      </trkpt>
      <trkpt lat="43.47683" lon="6.187">
        <ele>125</ele>
        <time>2024-01-28T09:38:35+01:00</time>
      </trkpt>
      <trkpt lat="43.47681" lon="6.18715">
        <ele>123</ele>
        <time>2024-01-28T09:39:11+01:00</time>
      </trkpt>
      <trkpt lat="43.47687" lon="6.18705">
        <ele>123</ele>
        <time>2024-01-28T09:46:41+01:00</time>
      </trkpt>
      <trkpt lat="43.47693" lon="6.18703">
        <ele>124</ele>
        <time>2024-01-28T09:46:59+01:00</time>
      </trkpt>
      <trkpt lat="43.47689" lon="6.18697">
        <ele>125</ele>
        <time>2024-01-28T09:47:16+01:00</time>
      </trkpt>
      <trkpt lat="43.47694" lon="6.18692">
        <ele>126</ele>
        <time>2024-01-28T09:47:23+01:00</time>
      </trkpt>
      <trkpt lat="43.47705" lon="6.18669">
        <ele>129</ele>
        <time>2024-01-28T09:47:56+01:00</time>
      </trkpt>
      <trkpt lat="43.47719" lon="6.18646">
        <ele>130</ele>
        <time>2024-01-28T09:48:28+01:00</time>
      </trkpt>
      <trkpt lat="43.47715" lon="6.18635">
        <ele>131</ele>
        <time>2024-01-28T09:48:38+01:00</time>
      </trkpt>
      <trkpt lat="43.47712" lon="6.18627">
        <ele>130</ele>
        <time>2024-01-28T09:48:51+01:00</time>
      </trkpt>
      <trkpt lat="43.47706" lon="6.18618">
        <ele>131</ele>
        <time>2024-01-28T09:49:11+01:00</time>
      </trkpt>
      <trkpt lat="43.477" lon="6.1861">
        <ele>130</ele>
        <time>2024-01-28T09:49:31+01:00</time>
      </trkpt>
      <trkpt lat="43.47704" lon="6.18607">
        <ele>131</ele>
        <time>2024-01-28T09:49:36+01:00</time>
      </trkpt>
      <trkpt lat="43.47703" lon="6.18599">
        <ele>133</ele>
        <time>2024-01-28T09:49:43+01:00</time>
      </trkpt>
      <trkpt lat="43.477" lon="6.18594">
        <ele>134</ele>
        <time>2024-01-28T09:49:59+01:00</time>
      </trkpt>
      <trkpt lat="43.47697" lon="6.18589">
        <ele>135</ele>
        <time>2024-01-28T09:50:04+01:00</time>
      </trkpt>
      <trkpt lat="43.47699" lon="6.18579">
        <ele>136</ele>
        <time>2024-01-28T09:50:13+01:00</time>
      </trkpt>
      <trkpt lat="43.47703" lon="6.18572">
        <ele>136</ele>
        <time>2024-01-28T09:49:14+01:00</time>
      </trkpt>
      <trkpt lat="43.47707" lon="6.18563">
        <ele>136</ele>
        <time>2024-01-28T09:49:25+01:00</time>
      </trkpt>
      <trkpt lat="43.47708" lon="6.18559">
        <ele>136</ele>
        <time>2024-01-28T09:49:45+01:00</time>
      </trkpt>
      <trkpt lat="43.47707" lon="6.18553">
        <ele>137</ele>
        <time>2024-01-28T09:49:56+01:00</time>
      </trkpt>
      <trkpt lat="43.47702" lon="6.18546">
        <ele>137</ele>
        <time>2024-01-28T09:50:06+01:00</time>
      </trkpt>
      <trkpt lat="43.47698" lon="6.18538">
        <ele>137</ele>
        <time>2024-01-28T09:50:15+01:00</time>
      </trkpt>
      <trkpt lat="43.47695" lon="6.18534">
        <ele>137</ele>
        <time>2024-01-28T09:50:25+01:00</time>
      </trkpt>
      <trkpt lat="43.47693" lon="6.18526">
        <ele>137</ele>
        <time>2024-01-28T09:50:36+01:00</time>
      </trkpt>
      <trkpt lat="43.47687" lon="6.1851">
        <ele>138</ele>
        <time>2024-01-28T09:51:07+01:00</time>
      </trkpt>
      <trkpt lat="43.47682" lon="6.18497">
        <ele>138</ele>
        <time>2024-01-28T09:51:46+01:00</time>
      </trkpt>
      <trkpt lat="43.47677" lon="6.18486">
        <ele>138</ele>
        <time>2024-01-28T09:51:51+01:00</time>
      </trkpt>
      <trkpt lat="43.47668" lon="6.18481">
        <ele>137</ele>
        <time>2024-01-28T09:51:56+01:00</time>
      </trkpt>
      <trkpt lat="43.47659" lon="6.18478">
        <ele>137</ele>
        <time>2024-01-28T09:52:01+01:00</time>
      </trkpt>
      <trkpt lat="43.47649" lon="6.18479">
        <ele>136</ele>
        <time>2024-01-28T09:52:09+01:00</time>
      </trkpt>
      <trkpt lat="43.47641" lon="6.18475">
        <ele>135</ele>
        <time>2024-01-28T09:52:18+01:00</time>
      </trkpt>
      <trkpt lat="43.4763" lon="6.18473">
        <ele>135</ele>
        <time>2024-01-28T09:52:24+01:00</time>
      </trkpt>
      <trkpt lat="43.47621" lon="6.1847">
        <ele>135</ele>
        <time>2024-01-28T09:52:31+01:00</time>
      </trkpt>
      <trkpt lat="43.47612" lon="6.18467">
        <ele>135</ele>
        <time>2024-01-28T09:52:37+01:00</time>
      </trkpt>
      <trkpt lat="43.47602" lon="6.18466">
        <ele>135</ele>
        <time>2024-01-28T09:52:44+01:00</time>
      </trkpt>
      <trkpt lat="43.47592" lon="6.18465">
        <ele>134</ele>
        <time>2024-01-28T09:52:53+01:00</time>
      </trkpt>
      <trkpt lat="43.47583" lon="6.1846">
        <ele>134</ele>
        <time>2024-01-28T09:53:00+01:00</time>
      </trkpt>
      <trkpt lat="43.47574" lon="6.18456">
        <ele>134</ele>
        <time>2024-01-28T09:53:07+01:00</time>
      </trkpt>
      <trkpt lat="43.47565" lon="6.18451">
        <ele>134</ele>
        <time>2024-01-28T09:53:15+01:00</time>
      </trkpt>
      <trkpt lat="43.47556" lon="6.18451">
        <ele>133</ele>
        <time>2024-01-28T09:53:22+01:00</time>
      </trkpt>
      <trkpt lat="43.47546" lon="6.18447">
        <ele>133</ele>
        <time>2024-01-28T09:53:30+01:00</time>
      </trkpt>
      <trkpt lat="43.47525" lon="6.18447">
        <ele>133</ele>
        <time>2024-01-28T09:53:52+01:00</time>
      </trkpt>
      <trkpt lat="43.47506" lon="6.18443">
        <ele>133</ele>
        <time>2024-01-28T09:54:47+01:00</time>
      </trkpt>
      <trkpt lat="43.47481" lon="6.1845">
        <ele>133</ele>
        <time>2024-01-28T09:55:14+01:00</time>
      </trkpt>
      <trkpt lat="43.47466" lon="6.18459">
        <ele>131</ele>
        <time>2024-01-28T09:55:37+01:00</time>
      </trkpt>
      <trkpt lat="43.47465" lon="6.18472">
        <ele>129</ele>
        <time>2024-01-28T09:55:49+01:00</time>
      </trkpt>
      <trkpt lat="43.47469" lon="6.18484">
        <ele>129</ele>
        <time>2024-01-28T09:55:56+01:00</time>
      </trkpt>
      <trkpt lat="43.47474" lon="6.18494">
        <ele>129</ele>
        <time>2024-01-28T09:56:07+01:00</time>
      </trkpt>
      <trkpt lat="43.47475" lon="6.18507">
        <ele>126</ele>
        <time>2024-01-28T09:56:17+01:00</time>
      </trkpt>
      <trkpt lat="43.47471" lon="6.18519">
        <ele>124</ele>
        <time>2024-01-28T09:56:24+01:00</time>
      </trkpt>
      <trkpt lat="43.4747" lon="6.18532">
        <ele>124</ele>
        <time>2024-01-28T09:56:32+01:00</time>
      </trkpt>
      <trkpt lat="43.47468" lon="6.18545">
        <ele>125</ele>
        <time>2024-01-28T09:56:46+01:00</time>
      </trkpt>
      <trkpt lat="43.47468" lon="6.18559">
        <ele>130</ele>
        <time>2024-01-28T09:56:54+01:00</time>
      </trkpt>
      <trkpt lat="43.47466" lon="6.18571">
        <ele>130</ele>
        <time>2024-01-28T09:57:01+01:00</time>
      </trkpt>
      <trkpt lat="43.47463" lon="6.18584">
        <ele>131</ele>
        <time>2024-01-28T09:57:12+01:00</time>
      </trkpt>
      <trkpt lat="43.47455" lon="6.18591">
        <ele>131</ele>
        <time>2024-01-28T09:57:23+01:00</time>
      </trkpt>
      <trkpt lat="43.47445" lon="6.18592">
        <ele>132</ele>
        <time>2024-01-28T09:57:32+01:00</time>
      </trkpt>
      <trkpt lat="43.47437" lon="6.18598">
        <ele>132</ele>
        <time>2024-01-28T09:57:43+01:00</time>
      </trkpt>
      <trkpt lat="43.47428" lon="6.18604">
        <ele>133</ele>
        <time>2024-01-28T09:57:52+01:00</time>
      </trkpt>
      <trkpt lat="43.47422" lon="6.18613">
        <ele>134</ele>
        <time>2024-01-28T09:58:00+01:00</time>
      </trkpt>
      <trkpt lat="43.47413" lon="6.18619">
        <ele>134</ele>
        <time>2024-01-28T09:58:09+01:00</time>
      </trkpt>
      <trkpt lat="43.47404" lon="6.18623">
        <ele>135</ele>
        <time>2024-01-28T09:58:17+01:00</time>
      </trkpt>
      <trkpt lat="43.47394" lon="6.18624">
        <ele>136</ele>
        <time>2024-01-28T09:58:25+01:00</time>
      </trkpt>
      <trkpt lat="43.47387" lon="6.18632">
        <ele>137</ele>
        <time>2024-01-28T09:58:33+01:00</time>
      </trkpt>
      <trkpt lat="43.47389" lon="6.18644">
        <ele>137</ele>
        <time>2024-01-28T09:58:40+01:00</time>
      </trkpt>
      <trkpt lat="43.4739" lon="6.18657">
        <ele>139</ele>
        <time>2024-01-28T09:58:47+01:00</time>
      </trkpt>
      <trkpt lat="43.47399" lon="6.18677">
        <ele>141</ele>
        <time>2024-01-28T09:59:25+01:00</time>
      </trkpt>
      <trkpt lat="43.47405" lon="6.18688">
        <ele>141</ele>
        <time>2024-01-28T09:59:36+01:00</time>
      </trkpt>
      <trkpt lat="43.47411" lon="6.18698">
        <ele>142</ele>
        <time>2024-01-28T09:59:44+01:00</time>
      </trkpt>
      <trkpt lat="43.47418" lon="6.18707">
        <ele>143</ele>
        <time>2024-01-28T09:59:52+01:00</time>
      </trkpt>
      <trkpt lat="43.47424" lon="6.18717">
        <ele>144</ele>
        <time>2024-01-28T10:00:00+01:00</time>
      </trkpt>
      <trkpt lat="43.47429" lon="6.18727">
        <ele>144</ele>
        <time>2024-01-28T10:00:08+01:00</time>
      </trkpt>
      <trkpt lat="43.47434" lon="6.18739">
        <ele>145</ele>
        <time>2024-01-28T10:00:16+01:00</time>
      </trkpt>
      <trkpt lat="43.47439" lon="6.1875">
        <ele>146</ele>
        <time>2024-01-28T10:00:24+01:00</time>
      </trkpt>
      <trkpt lat="43.47442" lon="6.18764">
        <ele>146</ele>
        <time>2024-01-28T10:00:32+01:00</time>
      </trkpt>
      <trkpt lat="43.47446" lon="6.18775">
        <ele>146</ele>
        <time>2024-01-28T10:00:40+01:00</time>
      </trkpt>
      <trkpt lat="43.4745" lon="6.18787">
        <ele>146</ele>
        <time>2024-01-28T10:00:46+01:00</time>
      </trkpt>
      <trkpt lat="43.47454" lon="6.188">
        <ele>146</ele>
        <time>2024-01-28T10:00:54+01:00</time>
      </trkpt>
      <trkpt lat="43.47456" lon="6.18813">
        <ele>146</ele>
        <time>2024-01-28T10:01:01+01:00</time>
      </trkpt>
      <trkpt lat="43.47459" lon="6.18824">
        <ele>146</ele>
        <time>2024-01-28T10:01:08+01:00</time>
      </trkpt>
      <trkpt lat="43.47461" lon="6.18838">
        <ele>147</ele>
        <time>2024-01-28T10:01:17+01:00</time>
      </trkpt>
      <trkpt lat="43.47462" lon="6.18852">
        <ele>146</ele>
        <time>2024-01-28T10:01:25+01:00</time>
      </trkpt>
      <trkpt lat="43.47466" lon="6.18864">
        <ele>147</ele>
        <time>2024-01-28T10:01:32+01:00</time>
      </trkpt>
      <trkpt lat="43.47469" lon="6.18877">
        <ele>147</ele>
        <time>2024-01-28T10:01:40+01:00</time>
      </trkpt>
      <trkpt lat="43.47472" lon="6.18891">
        <ele>147</ele>
        <time>2024-01-28T10:01:48+01:00</time>
      </trkpt>
      <trkpt lat="43.47474" lon="6.18903">
        <ele>148</ele>
        <time>2024-01-28T10:01:59+01:00</time>
      </trkpt>
      <trkpt lat="43.47478" lon="6.18915">
        <ele>149</ele>
        <time>2024-01-28T10:02:10+01:00</time>
      </trkpt>
      <trkpt lat="43.47486" lon="6.18921">
        <ele>148</ele>
        <time>2024-01-28T10:02:20+01:00</time>
      </trkpt>
      <trkpt lat="43.47492" lon="6.18932">
        <ele>149</ele>
        <time>2024-01-28T10:02:28+01:00</time>
      </trkpt>
      <trkpt lat="43.47499" lon="6.1894">
        <ele>149</ele>
        <time>2024-01-28T10:02:35+01:00</time>
      </trkpt>
      <trkpt lat="43.47507" lon="6.18948">
        <ele>148</ele>
        <time>2024-01-28T10:02:42+01:00</time>
      </trkpt>
      <trkpt lat="43.47514" lon="6.18957">
        <ele>148</ele>
        <time>2024-01-28T10:02:50+01:00</time>
      </trkpt>
      <trkpt lat="43.4752" lon="6.18968">
        <ele>146</ele>
        <time>2024-01-28T10:03:02+01:00</time>
      </trkpt>
      <trkpt lat="43.47521" lon="6.18981">
        <ele>145</ele>
        <time>2024-01-28T10:03:09+01:00</time>
      </trkpt>
      <trkpt lat="43.47522" lon="6.18994">
        <ele>145</ele>
        <time>2024-01-28T10:03:17+01:00</time>
      </trkpt>
      <trkpt lat="43.47524" lon="6.19008">
        <ele>146</ele>
        <time>2024-01-28T10:03:25+01:00</time>
      </trkpt>
      <trkpt lat="43.47527" lon="6.19021">
        <ele>145</ele>
        <time>2024-01-28T10:03:32+01:00</time>
      </trkpt>
      <trkpt lat="43.47537" lon="6.19055">
        <ele>144</ele>
        <time>2024-01-28T10:04:02+01:00</time>
      </trkpt>
      <trkpt lat="43.47539" lon="6.19068">
        <ele>143</ele>
        <time>2024-01-28T10:04:10+01:00</time>
      </trkpt>
      <trkpt lat="43.47541" lon="6.19081">
        <ele>143</ele>
        <time>2024-01-28T10:04:17+01:00</time>
      </trkpt>
      <trkpt lat="43.47545" lon="6.19094">
        <ele>142</ele>
        <time>2024-01-28T10:04:25+01:00</time>
      </trkpt>
      <trkpt lat="43.47551" lon="6.19103">
        <ele>140</ele>
        <time>2024-01-28T10:04:32+01:00</time>
      </trkpt>
      <trkpt lat="43.47554" lon="6.19117">
        <ele>139</ele>
        <time>2024-01-28T10:04:39+01:00</time>
      </trkpt>
      <trkpt lat="43.47553" lon="6.1913">
        <ele>140</ele>
        <time>2024-01-28T10:04:46+01:00</time>
      </trkpt>
      <trkpt lat="43.47555" lon="6.19143">
        <ele>139</ele>
        <time>2024-01-28T10:04:53+01:00</time>
      </trkpt>
      <trkpt lat="43.47559" lon="6.19156">
        <ele>138</ele>
        <time>2024-01-28T10:05:00+01:00</time>
      </trkpt>
      <trkpt lat="43.47562" lon="6.19169">
        <ele>138</ele>
        <time>2024-01-28T10:05:07+01:00</time>
      </trkpt>
      <trkpt lat="43.47566" lon="6.1918">
        <ele>136</ele>
        <time>2024-01-28T10:05:13+01:00</time>
      </trkpt>
      <trkpt lat="43.4757" lon="6.19194">
        <ele>135</ele>
        <time>2024-01-28T10:05:20+01:00</time>
      </trkpt>
      <trkpt lat="43.4757" lon="6.19207">
        <ele>135</ele>
        <time>2024-01-28T10:05:28+01:00</time>
      </trkpt>
      <trkpt lat="43.47572" lon="6.1922">
        <ele>134</ele>
        <time>2024-01-28T10:05:38+01:00</time>
      </trkpt>
      <trkpt lat="43.47574" lon="6.19233">
        <ele>134</ele>
        <time>2024-01-28T10:05:47+01:00</time>
      </trkpt>
      <trkpt lat="43.47574" lon="6.19246">
        <ele>133</ele>
        <time>2024-01-28T10:05:59+01:00</time>
      </trkpt>
      <trkpt lat="43.47573" lon="6.1926">
        <ele>132</ele>
        <time>2024-01-28T10:06:07+01:00</time>
      </trkpt>
      <trkpt lat="43.47572" lon="6.19273">
        <ele>133</ele>
        <time>2024-01-28T10:06:16+01:00</time>
      </trkpt>
      <trkpt lat="43.47574" lon="6.19285">
        <ele>132</ele>
        <time>2024-01-28T10:06:24+01:00</time>
      </trkpt>
      <trkpt lat="43.47577" lon="6.19297">
        <ele>130</ele>
        <time>2024-01-28T10:06:32+01:00</time>
      </trkpt>
      <trkpt lat="43.47577" lon="6.1931">
        <ele>130</ele>
        <time>2024-01-28T10:06:40+01:00</time>
      </trkpt>
      <trkpt lat="43.47578" lon="6.19322">
        <ele>131</ele>
        <time>2024-01-28T10:06:48+01:00</time>
      </trkpt>
      <trkpt lat="43.47581" lon="6.19334">
        <ele>131</ele>
        <time>2024-01-28T10:06:55+01:00</time>
      </trkpt>
      <trkpt lat="43.47588" lon="6.19345">
        <ele>132</ele>
        <time>2024-01-28T10:07:02+01:00</time>
      </trkpt>
      <trkpt lat="43.47595" lon="6.19354">
        <ele>129</ele>
        <time>2024-01-28T10:07:10+01:00</time>
      </trkpt>
      <trkpt lat="43.47599" lon="6.19366">
        <ele>130</ele>
        <time>2024-01-28T10:07:18+01:00</time>
      </trkpt>
      <trkpt lat="43.47592" lon="6.19405">
        <ele>132</ele>
        <time>2024-01-28T10:07:55+01:00</time>
      </trkpt>
      <trkpt lat="43.47592" lon="6.19405">
        <ele>132</ele>
        <time>2024-01-28T10:07:56+01:00</time>
      </trkpt>
      <trkpt lat="43.47592" lon="6.19405">
        <ele>132</ele>
        <time>2024-01-28T10:07:57+01:00</time>
      </trkpt>
      <trkpt lat="43.47588" lon="6.19418">
        <ele>131</ele>
        <time>2024-01-28T10:08:06+01:00</time>
      </trkpt>
      <trkpt lat="43.47586" lon="6.1943">
        <ele>132</ele>
        <time>2024-01-28T10:08:15+01:00</time>
      </trkpt>
      <trkpt lat="43.47587" lon="6.19442">
        <ele>132</ele>
        <time>2024-01-28T10:08:27+01:00</time>
      </trkpt>
      <trkpt lat="43.47598" lon="6.19471">
        <ele>130</ele>
        <time>2024-01-28T10:08:48+01:00</time>
      </trkpt>
      <trkpt lat="43.47599" lon="6.19473">
        <ele>131</ele>
        <time>2024-01-28T10:08:49+01:00</time>
      </trkpt>
      <trkpt lat="43.47607" lon="6.1948">
        <ele>130</ele>
        <time>2024-01-28T10:08:56+01:00</time>
      </trkpt>
      <trkpt lat="43.47613" lon="6.19489">
        <ele>129</ele>
        <time>2024-01-28T10:09:02+01:00</time>
      </trkpt>
      <trkpt lat="43.47621" lon="6.19496">
        <ele>128</ele>
        <time>2024-01-28T10:09:08+01:00</time>
      </trkpt>
      <trkpt lat="43.47627" lon="6.19506">
        <ele>128</ele>
        <time>2024-01-28T10:09:15+01:00</time>
      </trkpt>
      <trkpt lat="43.47632" lon="6.19516">
        <ele>128</ele>
        <time>2024-01-28T10:09:22+01:00</time>
      </trkpt>
      <trkpt lat="43.47639" lon="6.19525">
        <ele>127</ele>
        <time>2024-01-28T10:09:29+01:00</time>
      </trkpt>
      <trkpt lat="43.47645" lon="6.19536">
        <ele>126</ele>
        <time>2024-01-28T10:09:36+01:00</time>
      </trkpt>
      <trkpt lat="43.4765" lon="6.19546">
        <ele>126</ele>
        <time>2024-01-28T10:09:45+01:00</time>
      </trkpt>
      <trkpt lat="43.47658" lon="6.19553">
        <ele>126</ele>
        <time>2024-01-28T10:09:54+01:00</time>
      </trkpt>
      <trkpt lat="43.47667" lon="6.19558">
        <ele>129</ele>
        <time>2024-01-28T10:10:01+01:00</time>
      </trkpt>
      <trkpt lat="43.47675" lon="6.19565">
        <ele>131</ele>
        <time>2024-01-28T10:10:08+01:00</time>
      </trkpt>
      <trkpt lat="43.47684" lon="6.1957">
        <ele>128</ele>
        <time>2024-01-28T10:10:16+01:00</time>
      </trkpt>
      <trkpt lat="43.47691" lon="6.19578">
        <ele>126</ele>
        <time>2024-01-28T10:10:23+01:00</time>
      </trkpt>
      <trkpt lat="43.47697" lon="6.19588">
        <ele>128</ele>
        <time>2024-01-28T10:10:32+01:00</time>
      </trkpt>
      <trkpt lat="43.47705" lon="6.19596">
        <ele>125</ele>
        <time>2024-01-28T10:10:39+01:00</time>
      </trkpt>
      <trkpt lat="43.4771" lon="6.19607">
        <ele>126</ele>
        <time>2024-01-28T10:10:47+01:00</time>
      </trkpt>
      <trkpt lat="43.47714" lon="6.19619">
        <ele>127</ele>
        <time>2024-01-28T10:10:59+01:00</time>
      </trkpt>
      <trkpt lat="43.47723" lon="6.19625">
        <ele>126</ele>
        <time>2024-01-28T10:11:06+01:00</time>
      </trkpt>
      <trkpt lat="43.47729" lon="6.19636">
        <ele>127</ele>
        <time>2024-01-28T10:11:13+01:00</time>
      </trkpt>
      <trkpt lat="43.47737" lon="6.19643">
        <ele>126</ele>
        <time>2024-01-28T10:11:22+01:00</time>
      </trkpt>
      <trkpt lat="43.47745" lon="6.19651">
        <ele>126</ele>
        <time>2024-01-28T10:11:31+01:00</time>
      </trkpt>
      <trkpt lat="43.47753" lon="6.19657">
        <ele>127</ele>
        <time>2024-01-28T10:11:40+01:00</time>
      </trkpt>
      <trkpt lat="43.47763" lon="6.1966">
        <ele>126</ele>
        <time>2024-01-28T10:11:49+01:00</time>
      </trkpt>
      <trkpt lat="43.47771" lon="6.19668">
        <ele>127</ele>
        <time>2024-01-28T10:11:57+01:00</time>
      </trkpt>
      <trkpt lat="43.47778" lon="6.19676">
        <ele>126</ele>
        <time>2024-01-28T10:12:04+01:00</time>
      </trkpt>
      <trkpt lat="43.47785" lon="6.19687">
        <ele>126</ele>
        <time>2024-01-28T10:12:14+01:00</time>
      </trkpt>
      <trkpt lat="43.47791" lon="6.19697">
        <ele>125</ele>
        <time>2024-01-28T10:12:23+01:00</time>
      </trkpt>
      <trkpt lat="43.47794" lon="6.1971">
        <ele>125</ele>
        <time>2024-01-28T10:12:32+01:00</time>
      </trkpt>
      <trkpt lat="43.47799" lon="6.19721">
        <ele>125</ele>
        <time>2024-01-28T10:12:41+01:00</time>
      </trkpt>
      <trkpt lat="43.47805" lon="6.19731">
        <ele>125</ele>
        <time>2024-01-28T10:12:48+01:00</time>
      </trkpt>
      <trkpt lat="43.4781" lon="6.19743">
        <ele>124</ele>
        <time>2024-01-28T10:12:56+01:00</time>
      </trkpt>
      <trkpt lat="43.47816" lon="6.19752">
        <ele>124</ele>
        <time>2024-01-28T10:13:04+01:00</time>
      </trkpt>
      <trkpt lat="43.47821" lon="6.19763">
        <ele>124</ele>
        <time>2024-01-28T10:13:11+01:00</time>
      </trkpt>
      <trkpt lat="43.47828" lon="6.19773">
        <ele>124</ele>
        <time>2024-01-28T10:13:19+01:00</time>
      </trkpt>
      <trkpt lat="43.47832" lon="6.19783">
        <ele>123</ele>
        <time>2024-01-28T10:13:27+01:00</time>
      </trkpt>
      <trkpt lat="43.47836" lon="6.19795">
        <ele>123</ele>
        <time>2024-01-28T10:13:34+01:00</time>
      </trkpt>
      <trkpt lat="43.4784" lon="6.19807">
        <ele>123</ele>
        <time>2024-01-28T10:13:44+01:00</time>
      </trkpt>
      <trkpt lat="43.47843" lon="6.19819">
        <ele>123</ele>
        <time>2024-01-28T10:13:53+01:00</time>
      </trkpt>
      <trkpt lat="43.47843" lon="6.19832">
        <ele>124</ele>
        <time>2024-01-28T10:14:01+01:00</time>
      </trkpt>
      <trkpt lat="43.47845" lon="6.19845">
        <ele>124</ele>
        <time>2024-01-28T10:14:10+01:00</time>
      </trkpt>
      <trkpt lat="43.47849" lon="6.19858">
        <ele>123</ele>
        <time>2024-01-28T10:14:17+01:00</time>
      </trkpt>
      <trkpt lat="43.4785" lon="6.19871">
        <ele>123</ele>
        <time>2024-01-28T10:14:26+01:00</time>
      </trkpt>
      <trkpt lat="43.47855" lon="6.19883">
        <ele>123</ele>
        <time>2024-01-28T10:14:36+01:00</time>
      </trkpt>
      <trkpt lat="43.47859" lon="6.19894">
        <ele>124</ele>
        <time>2024-01-28T10:14:44+01:00</time>
      </trkpt>
      <trkpt lat="43.47866" lon="6.19904">
        <ele>123</ele>
        <time>2024-01-28T10:14:51+01:00</time>
      </trkpt>
      <trkpt lat="43.4787" lon="6.19917">
        <ele>124</ele>
        <time>2024-01-28T10:14:59+01:00</time>
      </trkpt>
      <trkpt lat="43.47876" lon="6.19927">
        <ele>126</ele>
        <time>2024-01-28T10:15:08+01:00</time>
      </trkpt>
      <trkpt lat="43.47902" lon="6.19951">
        <ele>122</ele>
        <time>2024-01-28T10:15:48+01:00</time>
      </trkpt>
      <trkpt lat="43.47902" lon="6.19953">
        <ele>123</ele>
        <time>2024-01-28T10:15:49+01:00</time>
      </trkpt>
      <trkpt lat="43.47906" lon="6.19963">
        <ele>122</ele>
        <time>2024-01-28T10:15:57+01:00</time>
      </trkpt>
      <trkpt lat="43.47912" lon="6.19974">
        <ele>121</ele>
        <time>2024-01-28T10:16:05+01:00</time>
      </trkpt>
      <trkpt lat="43.47917" lon="6.19985">
        <ele>122</ele>
        <time>2024-01-28T10:16:13+01:00</time>
      </trkpt>
      <trkpt lat="43.47921" lon="6.19997">
        <ele>122</ele>
        <time>2024-01-28T10:16:21+01:00</time>
      </trkpt>
      <trkpt lat="43.47927" lon="6.20008">
        <ele>121</ele>
        <time>2024-01-28T10:16:30+01:00</time>
      </trkpt>
      <trkpt lat="43.47931" lon="6.20019">
        <ele>120</ele>
        <time>2024-01-28T10:16:38+01:00</time>
      </trkpt>
      <trkpt lat="43.47935" lon="6.20031">
        <ele>120</ele>
        <time>2024-01-28T10:16:47+01:00</time>
      </trkpt>
      <trkpt lat="43.47937" lon="6.20044">
        <ele>120</ele>
        <time>2024-01-28T10:16:57+01:00</time>
      </trkpt>
      <trkpt lat="43.4794" lon="6.20057">
        <ele>122</ele>
        <time>2024-01-28T10:17:05+01:00</time>
      </trkpt>
      <trkpt lat="43.47947" lon="6.20066">
        <ele>121</ele>
        <time>2024-01-28T10:17:13+01:00</time>
      </trkpt>
      <trkpt lat="43.47953" lon="6.20078">
        <ele>119</ele>
        <time>2024-01-28T10:17:22+01:00</time>
      </trkpt>
      <trkpt lat="43.47959" lon="6.20088">
        <ele>119</ele>
        <time>2024-01-28T10:17:29+01:00</time>
      </trkpt>
      <trkpt lat="43.47967" lon="6.20095">
        <ele>117</ele>
        <time>2024-01-28T10:17:37+01:00</time>
      </trkpt>
      <trkpt lat="43.47973" lon="6.20106">
        <ele>117</ele>
        <time>2024-01-28T10:17:47+01:00</time>
      </trkpt>
      <trkpt lat="43.47976" lon="6.20119">
        <ele>118</ele>
        <time>2024-01-28T10:17:57+01:00</time>
      </trkpt>
      <trkpt lat="43.47978" lon="6.20132">
        <ele>119</ele>
        <time>2024-01-28T10:18:05+01:00</time>
      </trkpt>
      <trkpt lat="43.47981" lon="6.20145">
        <ele>120</ele>
        <time>2024-01-28T10:18:13+01:00</time>
      </trkpt>
      <trkpt lat="43.47984" lon="6.20156">
        <ele>120</ele>
        <time>2024-01-28T10:18:20+01:00</time>
      </trkpt>
      <trkpt lat="43.47991" lon="6.20165">
        <ele>120</ele>
        <time>2024-01-28T10:18:28+01:00</time>
      </trkpt>
      <trkpt lat="43.48004" lon="6.20199">
        <ele>120</ele>
        <time>2024-01-28T10:18:36+01:00</time>
      </trkpt>
      <trkpt lat="43.48013" lon="6.20196">
        <ele>116</ele>
        <time>2024-01-28T10:19:29+01:00</time>
      </trkpt>
      <trkpt lat="43.48008" lon="6.20216">
        <ele>122</ele>
        <time>2024-01-28T10:20:28+01:00</time>
      </trkpt>
      <trkpt lat="43.48007" lon="6.20208">
        <ele>121</ele>
        <time>2024-01-28T10:21:31+01:00</time>
      </trkpt>
      <trkpt lat="43.48007" lon="6.20218">
        <ele>123</ele>
        <time>2024-01-28T10:21:46+01:00</time>
      </trkpt>
      <trkpt lat="43.48007" lon="6.20219">
        <ele>124</ele>
        <time>2024-01-28T10:21:47+01:00</time>
      </trkpt>
      <trkpt lat="43.48012" lon="6.20232">
        <ele>122</ele>
        <time>2024-01-28T10:21:57+01:00</time>
      </trkpt>
      <trkpt lat="43.48016" lon="6.20243">
        <ele>123</ele>
        <time>2024-01-28T10:22:05+01:00</time>
      </trkpt>
      <trkpt lat="43.48018" lon="6.20257">
        <ele>123</ele>
        <time>2024-01-28T10:22:12+01:00</time>
      </trkpt>
      <trkpt lat="43.48022" lon="6.20269">
        <ele>123</ele>
        <time>2024-01-28T10:22:24+01:00</time>
      </trkpt>
      <trkpt lat="43.48028" lon="6.2028">
        <ele>125</ele>
        <time>2024-01-28T10:22:33+01:00</time>
      </trkpt>
      <trkpt lat="43.48034" lon="6.2029">
        <ele>126</ele>
        <time>2024-01-28T10:22:41+01:00</time>
      </trkpt>
      <trkpt lat="43.48039" lon="6.20302">
        <ele>125</ele>
        <time>2024-01-28T10:22:50+01:00</time>
      </trkpt>
      <trkpt lat="43.48043" lon="6.20314">
        <ele>125</ele>
        <time>2024-01-28T10:22:57+01:00</time>
      </trkpt>
      <trkpt lat="43.48047" lon="6.20326">
        <ele>126</ele>
        <time>2024-01-28T10:23:04+01:00</time>
      </trkpt>
      <trkpt lat="43.48052" lon="6.20336">
        <ele>126</ele>
        <time>2024-01-28T10:23:14+01:00</time>
      </trkpt>
      <trkpt lat="43.48056" lon="6.20348">
        <ele>127</ele>
        <time>2024-01-28T10:23:24+01:00</time>
      </trkpt>
      <trkpt lat="43.4806" lon="6.2036">
        <ele>127</ele>
        <time>2024-01-28T10:23:33+01:00</time>
      </trkpt>
      <trkpt lat="43.48063" lon="6.20373">
        <ele>127</ele>
        <time>2024-01-28T10:23:42+01:00</time>
      </trkpt>
      <trkpt lat="43.48064" lon="6.20387">
        <ele>127</ele>
        <time>2024-01-28T10:23:50+01:00</time>
      </trkpt>
      <trkpt lat="43.48064" lon="6.20401">
        <ele>126</ele>
        <time>2024-01-28T10:23:58+01:00</time>
      </trkpt>
      <trkpt lat="43.48066" lon="6.20414">
        <ele>126</ele>
        <time>2024-01-28T10:24:07+01:00</time>
      </trkpt>
      <trkpt lat="43.48066" lon="6.20427">
        <ele>126</ele>
        <time>2024-01-28T10:24:18+01:00</time>
      </trkpt>
      <trkpt lat="43.48062" lon="6.20439">
        <ele>126</ele>
        <time>2024-01-28T10:24:26+01:00</time>
      </trkpt>
      <trkpt lat="43.48063" lon="6.20452">
        <ele>126</ele>
        <time>2024-01-28T10:24:35+01:00</time>
      </trkpt>
      <trkpt lat="43.4806" lon="6.20465">
        <ele>126</ele>
        <time>2024-01-28T10:24:43+01:00</time>
      </trkpt>
      <trkpt lat="43.4806" lon="6.20477">
        <ele>126</ele>
        <time>2024-01-28T10:24:50+01:00</time>
      </trkpt>
      <trkpt lat="43.4806" lon="6.20491">
        <ele>127</ele>
        <time>2024-01-28T10:24:58+01:00</time>
      </trkpt>
      <trkpt lat="43.48063" lon="6.20504">
        <ele>126</ele>
        <time>2024-01-28T10:25:05+01:00</time>
      </trkpt>
      <trkpt lat="43.48062" lon="6.20518">
        <ele>126</ele>
        <time>2024-01-28T10:25:13+01:00</time>
      </trkpt>
      <trkpt lat="43.48063" lon="6.20559">
        <ele>126</ele>
        <time>2024-01-28T10:25:20+01:00</time>
      </trkpt>
      <trkpt lat="43.48063" lon="6.20588">
        <ele>125</ele>
        <time>2024-01-28T10:25:27+01:00</time>
      </trkpt>
      <trkpt lat="43.48062" lon="6.20597">
        <ele>125</ele>
        <time>2024-01-28T10:26:06+01:00</time>
      </trkpt>
      <trkpt lat="43.48061" lon="6.20599">
        <ele>125</ele>
        <time>2024-01-28T10:26:07+01:00</time>
      </trkpt>
      <trkpt lat="43.48056" lon="6.20611">
        <ele>125</ele>
        <time>2024-01-28T10:26:17+01:00</time>
      </trkpt>
      <trkpt lat="43.48055" lon="6.20625">
        <ele>125</ele>
        <time>2024-01-28T10:26:29+01:00</time>
      </trkpt>
      <trkpt lat="43.48053" lon="6.20638">
        <ele>125</ele>
        <time>2024-01-28T10:26:36+01:00</time>
      </trkpt>
      <trkpt lat="43.48052" lon="6.20651">
        <ele>124</ele>
        <time>2024-01-28T10:26:44+01:00</time>
      </trkpt>
      <trkpt lat="43.48049" lon="6.20664">
        <ele>123</ele>
        <time>2024-01-28T10:26:53+01:00</time>
      </trkpt>
      <trkpt lat="43.48048" lon="6.20678">
        <ele>122</ele>
        <time>2024-01-28T10:27:00+01:00</time>
      </trkpt>
      <trkpt lat="43.48048" lon="6.20691">
        <ele>122</ele>
        <time>2024-01-28T10:27:06+01:00</time>
      </trkpt>
      <trkpt lat="43.48047" lon="6.20704">
        <ele>122</ele>
        <time>2024-01-28T10:27:13+01:00</time>
      </trkpt>
      <trkpt lat="43.48046" lon="6.20717">
        <ele>121</ele>
        <time>2024-01-28T10:27:20+01:00</time>
      </trkpt>
      <trkpt lat="43.48045" lon="6.2073">
        <ele>121</ele>
        <time>2024-01-28T10:27:28+01:00</time>
      </trkpt>
      <trkpt lat="43.48045" lon="6.20743">
        <ele>121</ele>
        <time>2024-01-28T10:27:38+01:00</time>
      </trkpt>
      <trkpt lat="43.48045" lon="6.20756">
        <ele>121</ele>
        <time>2024-01-28T10:27:46+01:00</time>
      </trkpt>
      <trkpt lat="43.48043" lon="6.20768">
        <ele>121</ele>
        <time>2024-01-28T10:27:54+01:00</time>
      </trkpt>
      <trkpt lat="43.48042" lon="6.20782">
        <ele>121</ele>
        <time>2024-01-28T10:28:03+01:00</time>
      </trkpt>
      <trkpt lat="43.4804" lon="6.20795">
        <ele>121</ele>
        <time>2024-01-28T10:28:11+01:00</time>
      </trkpt>
      <trkpt lat="43.48041" lon="6.20808">
        <ele>121</ele>
        <time>2024-01-28T10:28:18+01:00</time>
      </trkpt>
      <trkpt lat="43.48038" lon="6.20821">
        <ele>122</ele>
        <time>2024-01-28T10:28:27+01:00</time>
      </trkpt>
      <trkpt lat="43.48041" lon="6.20888">
        <ele>122</ele>
        <time>2024-01-28T10:31:17+01:00</time>
      </trkpt>
      <trkpt lat="43.48046" lon="6.20918">
        <ele>121</ele>
        <time>2024-01-28T10:31:32+01:00</time>
      </trkpt>
      <trkpt lat="43.48045" lon="6.20927">
        <ele>122</ele>
        <time>2024-01-28T10:35:10+01:00</time>
      </trkpt>
      <trkpt lat="43.48046" lon="6.2094">
        <ele>122</ele>
        <time>2024-01-28T10:35:18+01:00</time>
      </trkpt>
      <trkpt lat="43.48049" lon="6.20952">
        <ele>122</ele>
        <time>2024-01-28T10:35:25+01:00</time>
      </trkpt>
      <trkpt lat="43.48079" lon="6.2102">
        <ele>121</ele>
        <time>2024-01-28T10:35:52+01:00</time>
      </trkpt>
      <trkpt lat="43.4807" lon="6.21017">
        <ele>123</ele>
        <time>2024-01-28T10:36:34+01:00</time>
      </trkpt>
      <trkpt lat="43.48079" lon="6.21031">
        <ele>121</ele>
        <time>2024-01-28T10:37:23+01:00</time>
      </trkpt>
      <trkpt lat="43.48084" lon="6.21036">
        <ele>122</ele>
        <time>2024-01-28T10:37:39+01:00</time>
      </trkpt>
      <trkpt lat="43.48089" lon="6.21047">
        <ele>123</ele>
        <time>2024-01-28T10:37:46+01:00</time>
      </trkpt>
      <trkpt lat="43.48094" lon="6.21058">
        <ele>123</ele>
        <time>2024-01-28T10:37:54+01:00</time>
      </trkpt>
      <trkpt lat="43.48099" lon="6.21068">
        <ele>124</ele>
        <time>2024-01-28T10:38:06+01:00</time>
      </trkpt>
      <trkpt lat="43.48108" lon="6.21075">
        <ele>124</ele>
        <time>2024-01-28T10:38:12+01:00</time>
      </trkpt>
      <trkpt lat="43.48114" lon="6.21085">
        <ele>126</ele>
        <time>2024-01-28T10:38:19+01:00</time>
      </trkpt>
      <trkpt lat="43.4812" lon="6.21096">
        <ele>124</ele>
        <time>2024-01-28T10:38:25+01:00</time>
      </trkpt>
      <trkpt lat="43.48127" lon="6.21107">
        <ele>125</ele>
        <time>2024-01-28T10:38:33+01:00</time>
      </trkpt>
      <trkpt lat="43.48131" lon="6.21117">
        <ele>127</ele>
        <time>2024-01-28T10:38:39+01:00</time>
      </trkpt>
      <trkpt lat="43.48138" lon="6.21126">
        <ele>125</ele>
        <time>2024-01-28T10:38:46+01:00</time>
      </trkpt>
      <trkpt lat="43.48145" lon="6.21136">
        <ele>123</ele>
        <time>2024-01-28T10:38:52+01:00</time>
      </trkpt>
      <trkpt lat="43.48151" lon="6.21145">
        <ele>123</ele>
        <time>2024-01-28T10:38:58+01:00</time>
      </trkpt>
      <trkpt lat="43.48157" lon="6.21158">
        <ele>122</ele>
        <time>2024-01-28T10:39:07+01:00</time>
      </trkpt>
      <trkpt lat="43.48162" lon="6.21168">
        <ele>123</ele>
        <time>2024-01-28T10:39:13+01:00</time>
      </trkpt>
      <trkpt lat="43.48169" lon="6.21177">
        <ele>123</ele>
        <time>2024-01-28T10:39:19+01:00</time>
      </trkpt>
      <trkpt lat="43.48174" lon="6.2119">
        <ele>124</ele>
        <time>2024-01-28T10:39:26+01:00</time>
      </trkpt>
      <trkpt lat="43.48182" lon="6.21199">
        <ele>123</ele>
        <time>2024-01-28T10:39:33+01:00</time>
      </trkpt>
      <trkpt lat="43.48189" lon="6.21206">
        <ele>123</ele>
        <time>2024-01-28T10:39:40+01:00</time>
      </trkpt>
      <trkpt lat="43.48198" lon="6.21211">
        <ele>122</ele>
        <time>2024-01-28T10:39:46+01:00</time>
      </trkpt>
      <trkpt lat="43.48204" lon="6.21221">
        <ele>123</ele>
        <time>2024-01-28T10:39:53+01:00</time>
      </trkpt>
      <trkpt lat="43.48211" lon="6.21229">
        <ele>122</ele>
        <time>2024-01-28T10:40:01+01:00</time>
      </trkpt>
      <trkpt lat="43.48218" lon="6.21237">
        <ele>124</ele>
        <time>2024-01-28T10:40:07+01:00</time>
      </trkpt>
      <trkpt lat="43.48225" lon="6.21248">
        <ele>124</ele>
        <time>2024-01-28T10:40:13+01:00</time>
      </trkpt>
      <trkpt lat="43.48231" lon="6.21258">
        <ele>126</ele>
        <time>2024-01-28T10:40:22+01:00</time>
      </trkpt>
      <trkpt lat="43.48235" lon="6.21271">
        <ele>126</ele>
        <time>2024-01-28T10:40:30+01:00</time>
      </trkpt>
      <trkpt lat="43.48237" lon="6.21284">
        <ele>126</ele>
        <time>2024-01-28T10:40:38+01:00</time>
      </trkpt>
      <trkpt lat="43.48233" lon="6.21291">
        <ele>128</ele>
        <time>2024-01-28T10:40:48+01:00</time>
      </trkpt>
      <trkpt lat="43.48233" lon="6.21298">
        <ele>128</ele>
        <time>2024-01-28T10:40:56+01:00</time>
      </trkpt>
      <trkpt lat="43.48228" lon="6.21315">
        <ele>129</ele>
        <time>2024-01-28T10:41:04+01:00</time>
      </trkpt>
      <trkpt lat="43.48216" lon="6.21338">
        <ele>129</ele>
        <time>2024-01-28T10:43:20+01:00</time>
      </trkpt>
      <trkpt lat="43.48217" lon="6.21351">
        <ele>130</ele>
        <time>2024-01-28T10:43:27+01:00</time>
      </trkpt>
      <trkpt lat="43.48219" lon="6.21363">
        <ele>130</ele>
        <time>2024-01-28T10:43:34+01:00</time>
      </trkpt>
      <trkpt lat="43.48222" lon="6.21377">
        <ele>131</ele>
        <time>2024-01-28T10:43:42+01:00</time>
      </trkpt>
      <trkpt lat="43.48223" lon="6.21391">
        <ele>131</ele>
        <time>2024-01-28T10:43:50+01:00</time>
      </trkpt>
      <trkpt lat="43.48225" lon="6.21403">
        <ele>132</ele>
        <time>2024-01-28T10:43:59+01:00</time>
      </trkpt>
      <trkpt lat="43.48224" lon="6.21417">
        <ele>132</ele>
        <time>2024-01-28T10:44:06+01:00</time>
      </trkpt>
      <trkpt lat="43.48225" lon="6.21431">
        <ele>132</ele>
        <time>2024-01-28T10:44:15+01:00</time>
      </trkpt>
      <trkpt lat="43.48223" lon="6.21444">
        <ele>132</ele>
        <time>2024-01-28T10:44:23+01:00</time>
      </trkpt>
      <trkpt lat="43.48223" lon="6.21457">
        <ele>133</ele>
        <time>2024-01-28T10:44:31+01:00</time>
      </trkpt>
      <trkpt lat="43.48225" lon="6.2147">
        <ele>134</ele>
        <time>2024-01-28T10:44:39+01:00</time>
      </trkpt>
      <trkpt lat="43.48227" lon="6.21483">
        <ele>134</ele>
        <time>2024-01-28T10:44:47+01:00</time>
      </trkpt>
      <trkpt lat="43.48226" lon="6.21495">
        <ele>134</ele>
        <time>2024-01-28T10:44:55+01:00</time>
      </trkpt>
      <trkpt lat="43.48226" lon="6.21508">
        <ele>135</ele>
        <time>2024-01-28T10:45:03+01:00</time>
      </trkpt>
      <trkpt lat="43.48226" lon="6.21521">
        <ele>135</ele>
        <time>2024-01-28T10:45:10+01:00</time>
      </trkpt>
      <trkpt lat="43.48226" lon="6.21534">
        <ele>135</ele>
        <time>2024-01-28T10:45:19+01:00</time>
      </trkpt>
      <trkpt lat="43.48226" lon="6.21547">
        <ele>134</ele>
        <time>2024-01-28T10:45:26+01:00</time>
      </trkpt>
      <trkpt lat="43.48221" lon="6.2156">
        <ele>134</ele>
        <time>2024-01-28T10:45:34+01:00</time>
      </trkpt>
      <trkpt lat="43.48218" lon="6.21572">
        <ele>135</ele>
        <time>2024-01-28T10:45:43+01:00</time>
      </trkpt>
      <trkpt lat="43.48219" lon="6.21585">
        <ele>135</ele>
        <time>2024-01-28T10:45:52+01:00</time>
      </trkpt>
      <trkpt lat="43.4822" lon="6.21598">
        <ele>136</ele>
        <time>2024-01-28T10:45:59+01:00</time>
      </trkpt>
      <trkpt lat="43.48221" lon="6.21611">
        <ele>136</ele>
        <time>2024-01-28T10:46:06+01:00</time>
      </trkpt>
      <trkpt lat="43.48221" lon="6.21625">
        <ele>136</ele>
        <time>2024-01-28T10:46:15+01:00</time>
      </trkpt>
      <trkpt lat="43.48221" lon="6.21638">
        <ele>136</ele>
        <time>2024-01-28T10:46:23+01:00</time>
      </trkpt>
      <trkpt lat="43.48223" lon="6.21651">
        <ele>136</ele>
        <time>2024-01-28T10:46:30+01:00</time>
      </trkpt>
      <trkpt lat="43.48221" lon="6.21664">
        <ele>136</ele>
        <time>2024-01-28T10:46:38+01:00</time>
      </trkpt>
      <trkpt lat="43.48219" lon="6.21677">
        <ele>137</ele>
        <time>2024-01-28T10:46:46+01:00</time>
      </trkpt>
      <trkpt lat="43.48217" lon="6.21689">
        <ele>136</ele>
        <time>2024-01-28T10:46:53+01:00</time>
      </trkpt>
      <trkpt lat="43.48213" lon="6.21701">
        <ele>137</ele>
        <time>2024-01-28T10:47:00+01:00</time>
      </trkpt>
      <trkpt lat="43.4821" lon="6.21713">
        <ele>137</ele>
        <time>2024-01-28T10:47:08+01:00</time>
      </trkpt>
      <trkpt lat="43.4821" lon="6.21727">
        <ele>137</ele>
        <time>2024-01-28T10:47:17+01:00</time>
      </trkpt>
      <trkpt lat="43.48208" lon="6.2174">
        <ele>136</ele>
        <time>2024-01-28T10:47:26+01:00</time>
      </trkpt>
      <trkpt lat="43.48207" lon="6.21754">
        <ele>137</ele>
        <time>2024-01-28T10:47:35+01:00</time>
      </trkpt>
      <trkpt lat="43.48206" lon="6.21767">
        <ele>135</ele>
        <time>2024-01-28T10:47:43+01:00</time>
      </trkpt>
      <trkpt lat="43.48203" lon="6.21779">
        <ele>135</ele>
        <time>2024-01-28T10:47:50+01:00</time>
      </trkpt>
      <trkpt lat="43.48201" lon="6.21791">
        <ele>136</ele>
        <time>2024-01-28T10:47:58+01:00</time>
      </trkpt>
      <trkpt lat="43.48202" lon="6.21804">
        <ele>135</ele>
        <time>2024-01-28T10:48:05+01:00</time>
      </trkpt>
      <trkpt lat="43.48201" lon="6.21812">
        <ele>134</ele>
        <time>2024-01-28T10:48:14+01:00</time>
      </trkpt>
      <trkpt lat="43.482" lon="6.21828">
        <ele>134</ele>
        <time>2024-01-28T10:48:26+01:00</time>
      </trkpt>
      <trkpt lat="43.48202" lon="6.21842">
        <ele>133</ele>
        <time>2024-01-28T10:48:34+01:00</time>
      </trkpt>
      <trkpt lat="43.48204" lon="6.21854">
        <ele>133</ele>
        <time>2024-01-28T10:48:45+01:00</time>
      </trkpt>
      <trkpt lat="43.48205" lon="6.21865">
        <ele>133</ele>
        <time>2024-01-28T10:49:06+01:00</time>
      </trkpt>
      <trkpt lat="43.48204" lon="6.21884">
        <ele>132</ele>
        <time>2024-01-28T10:50:53+01:00</time>
      </trkpt>
      <trkpt lat="43.482" lon="6.21892">
        <ele>132</ele>
        <time>2024-01-28T10:52:21+01:00</time>
      </trkpt>
      <trkpt lat="43.48194" lon="6.21903">
        <ele>133</ele>
        <time>2024-01-28T10:52:30+01:00</time>
      </trkpt>
      <trkpt lat="43.48186" lon="6.21909">
        <ele>134</ele>
        <time>2024-01-28T10:52:39+01:00</time>
      </trkpt>
      <trkpt lat="43.48177" lon="6.21913">
        <ele>135</ele>
        <time>2024-01-28T10:52:48+01:00</time>
      </trkpt>
      <trkpt lat="43.48165" lon="6.21911">
        <ele>136</ele>
        <time>2024-01-28T10:53:05+01:00</time>
      </trkpt>
      <trkpt lat="43.48155" lon="6.21911">
        <ele>136</ele>
        <time>2024-01-28T10:53:13+01:00</time>
      </trkpt>
      <trkpt lat="43.48145" lon="6.21913">
        <ele>137</ele>
        <time>2024-01-28T10:53:21+01:00</time>
      </trkpt>
      <trkpt lat="43.48135" lon="6.21913">
        <ele>137</ele>
        <time>2024-01-28T10:53:29+01:00</time>
      </trkpt>
      <trkpt lat="43.48126" lon="6.21917">
        <ele>136</ele>
        <time>2024-01-28T10:53:38+01:00</time>
      </trkpt>
      <trkpt lat="43.48118" lon="6.21923">
        <ele>136</ele>
        <time>2024-01-28T10:53:46+01:00</time>
      </trkpt>
      <trkpt lat="43.4811" lon="6.21932">
        <ele>135</ele>
        <time>2024-01-28T10:53:55+01:00</time>
      </trkpt>
      <trkpt lat="43.48104" lon="6.21942">
        <ele>133</ele>
        <time>2024-01-28T10:54:02+01:00</time>
      </trkpt>
      <trkpt lat="43.48102" lon="6.21954">
        <ele>132</ele>
        <time>2024-01-28T10:54:11+01:00</time>
      </trkpt>
      <trkpt lat="43.48098" lon="6.21966">
        <ele>132</ele>
        <time>2024-01-28T10:54:19+01:00</time>
      </trkpt>
      <trkpt lat="43.48093" lon="6.21978">
        <ele>131</ele>
        <time>2024-01-28T10:54:27+01:00</time>
      </trkpt>
      <trkpt lat="43.48087" lon="6.21988">
        <ele>130</ele>
        <time>2024-01-28T10:54:35+01:00</time>
      </trkpt>
      <trkpt lat="43.48084" lon="6.22001">
        <ele>129</ele>
        <time>2024-01-28T10:54:44+01:00</time>
      </trkpt>
      <trkpt lat="43.48086" lon="6.22014">
        <ele>129</ele>
        <time>2024-01-28T10:54:51+01:00</time>
      </trkpt>
      <trkpt lat="43.48086" lon="6.22027">
        <ele>129</ele>
        <time>2024-01-28T10:54:58+01:00</time>
      </trkpt>
      <trkpt lat="43.48089" lon="6.22039">
        <ele>129</ele>
        <time>2024-01-28T10:55:05+01:00</time>
      </trkpt>
      <trkpt lat="43.48095" lon="6.22049">
        <ele>129</ele>
        <time>2024-01-28T10:55:12+01:00</time>
      </trkpt>
      <trkpt lat="43.48102" lon="6.22058">
        <ele>129</ele>
        <time>2024-01-28T10:55:20+01:00</time>
      </trkpt>
      <trkpt lat="43.48107" lon="6.22068">
        <ele>129</ele>
        <time>2024-01-28T10:55:27+01:00</time>
      </trkpt>
      <trkpt lat="43.4811" lon="6.2208">
        <ele>130</ele>
        <time>2024-01-28T10:55:37+01:00</time>
      </trkpt>
      <trkpt lat="43.48113" lon="6.22093">
        <ele>129</ele>
        <time>2024-01-28T10:55:46+01:00</time>
      </trkpt>
      <trkpt lat="43.48114" lon="6.22105">
        <ele>129</ele>
        <time>2024-01-28T10:55:53+01:00</time>
      </trkpt>
      <trkpt lat="43.48118" lon="6.22118">
        <ele>128</ele>
        <time>2024-01-28T10:56:00+01:00</time>
      </trkpt>
      <trkpt lat="43.48126" lon="6.22126">
        <ele>128</ele>
        <time>2024-01-28T10:56:06+01:00</time>
      </trkpt>
      <trkpt lat="43.48133" lon="6.22134">
        <ele>128</ele>
        <time>2024-01-28T10:56:13+01:00</time>
      </trkpt>
      <trkpt lat="43.48142" lon="6.22143">
        <ele>130</ele>
        <time>2024-01-28T10:56:25+01:00</time>
      </trkpt>
      <trkpt lat="43.48149" lon="6.22148">
        <ele>130</ele>
        <time>2024-01-28T10:56:34+01:00</time>
      </trkpt>
      <trkpt lat="43.48155" lon="6.22157">
        <ele>130</ele>
        <time>2024-01-28T10:56:44+01:00</time>
      </trkpt>
      <trkpt lat="43.48162" lon="6.22167">
        <ele>132</ele>
        <time>2024-01-28T10:56:53+01:00</time>
      </trkpt>
      <trkpt lat="43.48173" lon="6.22182">
        <ele>130</ele>
        <time>2024-01-28T10:57:13+01:00</time>
      </trkpt>
      <trkpt lat="43.4818" lon="6.22191">
        <ele>131</ele>
        <time>2024-01-28T10:57:23+01:00</time>
      </trkpt>
      <trkpt lat="43.48187" lon="6.222">
        <ele>131</ele>
        <time>2024-01-28T10:57:33+01:00</time>
      </trkpt>
      <trkpt lat="43.48194" lon="6.2221">
        <ele>131</ele>
        <time>2024-01-28T10:57:44+01:00</time>
      </trkpt>
      <trkpt lat="43.482" lon="6.2222">
        <ele>130</ele>
        <time>2024-01-28T10:57:53+01:00</time>
      </trkpt>
      <trkpt lat="43.48207" lon="6.22228">
        <ele>130</ele>
        <time>2024-01-28T10:58:02+01:00</time>
      </trkpt>
      <trkpt lat="43.48213" lon="6.22238">
        <ele>130</ele>
        <time>2024-01-28T10:58:11+01:00</time>
      </trkpt>
      <trkpt lat="43.4822" lon="6.22248">
        <ele>130</ele>
        <time>2024-01-28T10:58:21+01:00</time>
      </trkpt>
      <trkpt lat="43.48226" lon="6.22257">
        <ele>131</ele>
        <time>2024-01-28T10:58:31+01:00</time>
      </trkpt>
      <trkpt lat="43.48229" lon="6.2227">
        <ele>131</ele>
        <time>2024-01-28T10:58:41+01:00</time>
      </trkpt>
      <trkpt lat="43.48228" lon="6.22283">
        <ele>130</ele>
        <time>2024-01-28T10:58:52+01:00</time>
      </trkpt>
      <trkpt lat="43.48227" lon="6.22296">
        <ele>129</ele>
        <time>2024-01-28T10:59:00+01:00</time>
      </trkpt>
      <trkpt lat="43.48228" lon="6.22309">
        <ele>130</ele>
        <time>2024-01-28T10:59:11+01:00</time>
      </trkpt>
      <trkpt lat="43.48231" lon="6.22322">
        <ele>132</ele>
        <time>2024-01-28T10:59:22+01:00</time>
      </trkpt>
      <trkpt lat="43.48234" lon="6.22334">
        <ele>132</ele>
        <time>2024-01-28T10:59:35+01:00</time>
      </trkpt>
      <trkpt lat="43.48238" lon="6.22347">
        <ele>133</ele>
        <time>2024-01-28T10:59:49+01:00</time>
      </trkpt>
      <trkpt lat="43.48243" lon="6.22357">
        <ele>134</ele>
        <time>2024-01-28T10:59:56+01:00</time>
      </trkpt>
      <trkpt lat="43.48248" lon="6.22368">
        <ele>134</ele>
        <time>2024-01-28T11:00:06+01:00</time>
      </trkpt>
      <trkpt lat="43.48249" lon="6.22372">
        <ele>134</ele>
        <time>2024-01-28T11:00:16+01:00</time>
      </trkpt>
      <trkpt lat="43.4826" lon="6.22378">
        <ele>136</ele>
        <time>2024-01-28T11:00:39+01:00</time>
      </trkpt>
      <trkpt lat="43.48264" lon="6.22378">
        <ele>136</ele>
        <time>2024-01-28T11:00:45+01:00</time>
      </trkpt>
      <trkpt lat="43.48275" lon="6.22386">
        <ele>137</ele>
        <time>2024-01-28T11:00:47+01:00</time>
      </trkpt>
      <trkpt lat="43.48309" lon="6.22409">
        <ele>136</ele>
        <time>2024-01-28T11:02:08+01:00</time>
      </trkpt>
      <trkpt lat="43.48317" lon="6.22413">
        <ele>136</ele>
        <time>2024-01-28T11:02:16+01:00</time>
      </trkpt>
      <trkpt lat="43.48327" lon="6.22415">
        <ele>135</ele>
        <time>2024-01-28T11:02:25+01:00</time>
      </trkpt>
      <trkpt lat="43.48337" lon="6.2242">
        <ele>134</ele>
        <time>2024-01-28T11:02:35+01:00</time>
      </trkpt>
      <trkpt lat="43.48345" lon="6.22427">
        <ele>133</ele>
        <time>2024-01-28T11:02:43+01:00</time>
      </trkpt>
      <trkpt lat="43.48354" lon="6.22427">
        <ele>132</ele>
        <time>2024-01-28T11:02:52+01:00</time>
      </trkpt>
      <trkpt lat="43.48359" lon="6.22438">
        <ele>130</ele>
        <time>2024-01-28T11:03:07+01:00</time>
      </trkpt>
      <trkpt lat="43.4836" lon="6.2245">
        <ele>128</ele>
        <time>2024-01-28T11:03:20+01:00</time>
      </trkpt>
      <trkpt lat="43.48366" lon="6.2246">
        <ele>126</ele>
        <time>2024-01-28T11:03:26+01:00</time>
      </trkpt>
      <trkpt lat="43.48376" lon="6.22461">
        <ele>124</ele>
        <time>2024-01-28T11:03:37+01:00</time>
      </trkpt>
      <trkpt lat="43.48384" lon="6.22456">
        <ele>122</ele>
        <time>2024-01-28T11:03:48+01:00</time>
      </trkpt>
      <trkpt lat="43.48393" lon="6.22452">
        <ele>120</ele>
        <time>2024-01-28T11:03:59+01:00</time>
      </trkpt>
      <trkpt lat="43.48401" lon="6.22458">
        <ele>118</ele>
        <time>2024-01-28T11:04:14+01:00</time>
      </trkpt>
      <trkpt lat="43.48403" lon="6.22459">
        <ele>118</ele>
        <time>2024-01-28T11:04:20+01:00</time>
      </trkpt>
      <trkpt lat="43.48403" lon="6.22459">
        <ele>118</ele>
        <time>2024-01-28T11:04:21+01:00</time>
      </trkpt>
      <trkpt lat="43.48403" lon="6.22459">
        <ele>118</ele>
        <time>2024-01-28T11:04:22+01:00</time>
      </trkpt>
      <trkpt lat="43.48408" lon="6.22459">
        <ele>116</ele>
        <time>2024-01-28T11:04:49+01:00</time>
      </trkpt>
      <trkpt lat="43.4841" lon="6.2246">
        <ele>115</ele>
        <time>2024-01-28T11:05:13+01:00</time>
      </trkpt>
      <trkpt lat="43.4841" lon="6.22459">
        <ele>115</ele>
        <time>2024-01-28T11:05:14+01:00</time>
      </trkpt>
      <trkpt lat="43.4841" lon="6.22459">
        <ele>115</ele>
        <time>2024-01-28T11:05:15+01:00</time>
      </trkpt>
      <trkpt lat="43.48416" lon="6.22466">
        <ele>110</ele>
        <time>2024-01-28T11:05:48+01:00</time>
      </trkpt>
      <trkpt lat="43.48416" lon="6.22465">
        <ele>110</ele>
        <time>2024-01-28T11:05:49+01:00</time>
      </trkpt>
      <trkpt lat="43.48416" lon="6.22465">
        <ele>110</ele>
        <time>2024-01-28T11:05:50+01:00</time>
      </trkpt>
      <trkpt lat="43.48415" lon="6.22465">
        <ele>110</ele>
        <time>2024-01-28T11:05:51+01:00</time>
      </trkpt>
      <trkpt lat="43.48414" lon="6.22465">
        <ele>111</ele>
        <time>2024-01-28T11:05:52+01:00</time>
      </trkpt>
      <trkpt lat="43.48414" lon="6.22465">
        <ele>111</ele>
        <time>2024-01-28T11:05:53+01:00</time>
      </trkpt>
      <trkpt lat="43.48417" lon="6.2246">
        <ele>111</ele>
        <time>2024-01-28T11:06:13+01:00</time>
      </trkpt>
      <trkpt lat="43.48417" lon="6.2246">
        <ele>111</ele>
        <time>2024-01-28T11:06:14+01:00</time>
      </trkpt>
      <trkpt lat="43.48417" lon="6.2246">
        <ele>111</ele>
        <time>2024-01-28T11:06:15+01:00</time>
      </trkpt>
      <trkpt lat="43.48417" lon="6.2246">
        <ele>111</ele>
        <time>2024-01-28T11:06:16+01:00</time>
      </trkpt>
      <trkpt lat="43.48417" lon="6.2246">
        <ele>111</ele>
        <time>2024-01-28T11:06:17+01:00</time>
      </trkpt>
      <trkpt lat="43.48416" lon="6.22459">
        <ele>112</ele>
        <time>2024-01-28T11:06:18+01:00</time>
      </trkpt>
      <trkpt lat="43.48425" lon="6.22454">
        <ele>110</ele>
        <time>2024-01-28T11:10:54+01:00</time>
      </trkpt>
      <trkpt lat="43.48425" lon="6.22461">
        <ele>109</ele>
        <time>2024-01-28T11:13:36+01:00</time>
      </trkpt>
      <trkpt lat="43.48415" lon="6.2247">
        <ele>109</ele>
        <time>2024-01-28T11:14:29+01:00</time>
      </trkpt>
      <trkpt lat="43.48416" lon="6.2247">
        <ele>109</ele>
        <time>2024-01-28T11:14:30+01:00</time>
      </trkpt>
      <trkpt lat="43.48416" lon="6.2247">
        <ele>109</ele>
        <time>2024-01-28T11:14:33+01:00</time>
      </trkpt>
      <trkpt lat="43.48416" lon="6.2247">
        <ele>109</ele>
        <time>2024-01-28T11:14:34+01:00</time>
      </trkpt>
      <trkpt lat="43.48416" lon="6.2247">
        <ele>109</ele>
        <time>2024-01-28T11:14:35+01:00</time>
      </trkpt>
      <trkpt lat="43.48412" lon="6.22474">
        <ele>110</ele>
        <time>2024-01-28T11:14:37+01:00</time>
      </trkpt>
      <trkpt lat="43.4841" lon="6.22479">
        <ele>109</ele>
        <time>2024-01-28T11:15:04+01:00</time>
      </trkpt>
      <trkpt lat="43.48407" lon="6.2248">
        <ele>110</ele>
        <time>2024-01-28T11:16:12+01:00</time>
      </trkpt>
      <trkpt lat="43.48403" lon="6.22481">
        <ele>113</ele>
        <time>2024-01-28T11:17:05+01:00</time>
      </trkpt>
      <trkpt lat="43.48403" lon="6.22481">
        <ele>113</ele>
        <time>2024-01-28T11:17:06+01:00</time>
      </trkpt>
      <trkpt lat="43.48403" lon="6.22481">
        <ele>113</ele>
        <time>2024-01-28T11:17:07+01:00</time>
      </trkpt>
      <trkpt lat="43.48403" lon="6.2248">
        <ele>114</ele>
        <time>2024-01-28T11:17:30+01:00</time>
      </trkpt>
      <trkpt lat="43.48409" lon="6.22468">
        <ele>113</ele>
        <time>2024-01-28T11:21:18+01:00</time>
      </trkpt>
      <trkpt lat="43.48409" lon="6.22469">
        <ele>113</ele>
        <time>2024-01-28T11:21:19+01:00</time>
      </trkpt>
      <trkpt lat="43.4841" lon="6.2247">
        <ele>112</ele>
        <time>2024-01-28T11:21:20+01:00</time>
      </trkpt>
      <trkpt lat="43.48407" lon="6.22454">
        <ele>117</ele>
        <time>2024-01-28T11:22:50+01:00</time>
      </trkpt>
      <trkpt lat="43.48407" lon="6.22454">
        <ele>117</ele>
        <time>2024-01-28T11:22:51+01:00</time>
      </trkpt>
      <trkpt lat="43.48407" lon="6.22454">
        <ele>117</ele>
        <time>2024-01-28T11:22:52+01:00</time>
      </trkpt>
      <trkpt lat="43.48407" lon="6.22453">
        <ele>117</ele>
        <time>2024-01-28T11:23:20+01:00</time>
      </trkpt>
      <trkpt lat="43.48407" lon="6.22454">
        <ele>117</ele>
        <time>2024-01-28T11:23:21+01:00</time>
      </trkpt>
      <trkpt lat="43.48407" lon="6.22453">
        <ele>117</ele>
        <time>2024-01-28T11:23:22+01:00</time>
      </trkpt>
      <trkpt lat="43.48407" lon="6.22454">
        <ele>117</ele>
        <time>2024-01-28T11:23:23+01:00</time>
      </trkpt>
      <trkpt lat="43.48408" lon="6.22453">
        <ele>117</ele>
        <time>2024-01-28T11:23:38+01:00</time>
      </trkpt>
      <trkpt lat="43.48408" lon="6.22453">
        <ele>117</ele>
        <time>2024-01-28T11:23:39+01:00</time>
      </trkpt>
      <trkpt lat="43.48408" lon="6.22453">
        <ele>117</ele>
        <time>2024-01-28T11:23:40+01:00</time>
      </trkpt>
      <trkpt lat="43.48408" lon="6.22453">
        <ele>117</ele>
        <time>2024-01-28T11:23:41+01:00</time>
      </trkpt>
      <trkpt lat="43.48397" lon="6.22444">
        <ele>119</ele>
        <time>2024-01-28T11:23:45+01:00</time>
      </trkpt>
      <trkpt lat="43.48403" lon="6.22445">
        <ele>118</ele>
        <time>2024-01-28T11:23:46+01:00</time>
      </trkpt>
      <trkpt lat="43.4841" lon="6.22455">
        <ele>116</ele>
        <time>2024-01-28T11:23:51+01:00</time>
      </trkpt>
      <trkpt lat="43.48399" lon="6.22453">
        <ele>119</ele>
        <time>2024-01-28T11:23:52+01:00</time>
      </trkpt>
      <trkpt lat="43.48372" lon="6.22456">
        <ele>125</ele>
        <time>2024-01-28T11:27:27+01:00</time>
      </trkpt>
      <trkpt lat="43.48363" lon="6.2245">
        <ele>127</ele>
        <time>2024-01-28T11:27:40+01:00</time>
      </trkpt>
      <trkpt lat="43.48365" lon="6.22437">
        <ele>129</ele>
        <time>2024-01-28T11:27:53+01:00</time>
      </trkpt>
      <trkpt lat="43.48364" lon="6.22424">
        <ele>127</ele>
        <time>2024-01-28T11:28:09+01:00</time>
      </trkpt>
      <trkpt lat="43.48355" lon="6.22422">
        <ele>132</ele>
        <time>2024-01-28T11:28:19+01:00</time>
      </trkpt>
      <trkpt lat="43.48345" lon="6.2242">
        <ele>133</ele>
        <time>2024-01-28T11:28:31+01:00</time>
      </trkpt>
      <trkpt lat="43.48335" lon="6.22413">
        <ele>135</ele>
        <time>2024-01-28T11:28:52+01:00</time>
      </trkpt>
      <trkpt lat="43.48325" lon="6.22409">
        <ele>136</ele>
        <time>2024-01-28T11:29:05+01:00</time>
      </trkpt>
      <trkpt lat="43.48316" lon="6.22406">
        <ele>137</ele>
        <time>2024-01-28T11:29:15+01:00</time>
      </trkpt>
      <trkpt lat="43.48306" lon="6.22404">
        <ele>136</ele>
        <time>2024-01-28T11:29:23+01:00</time>
      </trkpt>
      <trkpt lat="43.48297" lon="6.22399">
        <ele>136</ele>
        <time>2024-01-28T11:29:31+01:00</time>
      </trkpt>
      <trkpt lat="43.4829" lon="6.22391">
        <ele>137</ele>
        <time>2024-01-28T11:29:43+01:00</time>
      </trkpt>
      <trkpt lat="43.48283" lon="6.22382">
        <ele>137</ele>
        <time>2024-01-28T11:29:55+01:00</time>
      </trkpt>
      <trkpt lat="43.48275" lon="6.22376">
        <ele>138</ele>
        <time>2024-01-28T11:30:05+01:00</time>
      </trkpt>
      <trkpt lat="43.48265" lon="6.22373">
        <ele>136</ele>
        <time>2024-01-28T11:30:12+01:00</time>
      </trkpt>
      <trkpt lat="43.48257" lon="6.22363">
        <ele>135</ele>
        <time>2024-01-28T11:30:24+01:00</time>
      </trkpt>
      <trkpt lat="43.48252" lon="6.22353">
        <ele>135</ele>
        <time>2024-01-28T11:30:33+01:00</time>
      </trkpt>
      <trkpt lat="43.48247" lon="6.22343">
        <ele>135</ele>
        <time>2024-01-28T11:30:43+01:00</time>
      </trkpt>
      <trkpt lat="43.48247" lon="6.2233">
        <ele>135</ele>
        <time>2024-01-28T11:30:54+01:00</time>
      </trkpt>
      <trkpt lat="43.4824" lon="6.2232">
        <ele>134</ele>
        <time>2024-01-28T11:31:08+01:00</time>
      </trkpt>
      <trkpt lat="43.48234" lon="6.2231">
        <ele>132</ele>
        <time>2024-01-28T11:31:20+01:00</time>
      </trkpt>
      <trkpt lat="43.48227" lon="6.22302">
        <ele>129</ele>
        <time>2024-01-28T11:31:35+01:00</time>
      </trkpt>
      <trkpt lat="43.48218" lon="6.22306">
        <ele>127</ele>
        <time>2024-01-28T11:31:52+01:00</time>
      </trkpt>
      <trkpt lat="43.48209" lon="6.2231">
        <ele>125</ele>
        <time>2024-01-28T11:32:06+01:00</time>
      </trkpt>
      <trkpt lat="43.48206" lon="6.22322">
        <ele>123</ele>
        <time>2024-01-28T11:32:19+01:00</time>
      </trkpt>
      <trkpt lat="43.48205" lon="6.22334">
        <ele>121</ele>
        <time>2024-01-28T11:32:27+01:00</time>
      </trkpt>
      <trkpt lat="43.48208" lon="6.22347">
        <ele>120</ele>
        <time>2024-01-28T11:32:37+01:00</time>
      </trkpt>
      <trkpt lat="43.4821" lon="6.2236">
        <ele>121</ele>
        <time>2024-01-28T11:32:46+01:00</time>
      </trkpt>
      <trkpt lat="43.48214" lon="6.22373">
        <ele>119</ele>
        <time>2024-01-28T11:32:55+01:00</time>
      </trkpt>
      <trkpt lat="43.48217" lon="6.22385">
        <ele>118</ele>
        <time>2024-01-28T11:33:05+01:00</time>
      </trkpt>
      <trkpt lat="43.48219" lon="6.22397">
        <ele>118</ele>
        <time>2024-01-28T11:33:15+01:00</time>
      </trkpt>
      <trkpt lat="43.48205" lon="6.22398">
        <ele>116</ele>
        <time>2024-01-28T11:34:02+01:00</time>
      </trkpt>
      <trkpt lat="43.48196" lon="6.22398">
        <ele>114</ele>
        <time>2024-01-28T11:34:14+01:00</time>
      </trkpt>
      <trkpt lat="43.48187" lon="6.22396">
        <ele>113</ele>
        <time>2024-01-28T11:34:22+01:00</time>
      </trkpt>
      <trkpt lat="43.48177" lon="6.22397">
        <ele>113</ele>
        <time>2024-01-28T11:34:31+01:00</time>
      </trkpt>
      <trkpt lat="43.48169" lon="6.22398">
        <ele>112</ele>
        <time>2024-01-28T11:34:43+01:00</time>
      </trkpt>
      <trkpt lat="43.48167" lon="6.22399">
        <ele>112</ele>
        <time>2024-01-28T11:34:58+01:00</time>
      </trkpt>
      <trkpt lat="43.48158" lon="6.22392">
        <ele>112</ele>
        <time>2024-01-28T11:35:12+01:00</time>
      </trkpt>
      <trkpt lat="43.4815" lon="6.22385">
        <ele>112</ele>
        <time>2024-01-28T11:35:21+01:00</time>
      </trkpt>
      <trkpt lat="43.48142" lon="6.22377">
        <ele>112</ele>
        <time>2024-01-28T11:35:30+01:00</time>
      </trkpt>
      <trkpt lat="43.48134" lon="6.22369">
        <ele>112</ele>
        <time>2024-01-28T11:35:39+01:00</time>
      </trkpt>
      <trkpt lat="43.48126" lon="6.22364">
        <ele>112</ele>
        <time>2024-01-28T11:35:46+01:00</time>
      </trkpt>
      <trkpt lat="43.48117" lon="6.22357">
        <ele>112</ele>
        <time>2024-01-28T11:35:55+01:00</time>
      </trkpt>
      <trkpt lat="43.48111" lon="6.22358">
        <ele>112</ele>
        <time>2024-01-28T11:36:13+01:00</time>
      </trkpt>
      <trkpt lat="43.48106" lon="6.22361">
        <ele>111</ele>
        <time>2024-01-28T11:37:31+01:00</time>
      </trkpt>
      <trkpt lat="43.48107" lon="6.22367">
        <ele>111</ele>
        <time>2024-01-28T11:37:41+01:00</time>
      </trkpt>
      <trkpt lat="43.481" lon="6.22358">
        <ele>111</ele>
        <time>2024-01-28T11:38:20+01:00</time>
      </trkpt>
      <trkpt lat="43.48092" lon="6.22351">
        <ele>111</ele>
        <time>2024-01-28T11:38:29+01:00</time>
      </trkpt>
      <trkpt lat="43.48084" lon="6.22346">
        <ele>112</ele>
        <time>2024-01-28T11:38:39+01:00</time>
      </trkpt>
      <trkpt lat="43.48074" lon="6.22348">
        <ele>112</ele>
        <time>2024-01-28T11:38:46+01:00</time>
      </trkpt>
      <trkpt lat="43.48064" lon="6.22352">
        <ele>112</ele>
        <time>2024-01-28T11:38:54+01:00</time>
      </trkpt>
      <trkpt lat="43.48055" lon="6.22352">
        <ele>112</ele>
        <time>2024-01-28T11:39:03+01:00</time>
      </trkpt>
      <trkpt lat="43.48046" lon="6.22352">
        <ele>112</ele>
        <time>2024-01-28T11:39:17+01:00</time>
      </trkpt>
      <trkpt lat="43.48037" lon="6.22349">
        <ele>113</ele>
        <time>2024-01-28T11:39:32+01:00</time>
      </trkpt>
      <trkpt lat="43.48027" lon="6.22351">
        <ele>113</ele>
        <time>2024-01-28T11:39:42+01:00</time>
      </trkpt>
      <trkpt lat="43.48018" lon="6.22354">
        <ele>112</ele>
        <time>2024-01-28T11:39:49+01:00</time>
      </trkpt>
      <trkpt lat="43.48009" lon="6.2235">
        <ele>114</ele>
        <time>2024-01-28T11:40:01+01:00</time>
      </trkpt>
      <trkpt lat="43.47999" lon="6.22349">
        <ele>113</ele>
        <time>2024-01-28T11:40:15+01:00</time>
      </trkpt>
      <trkpt lat="43.47992" lon="6.22342">
        <ele>113</ele>
        <time>2024-01-28T11:40:23+01:00</time>
      </trkpt>
      <trkpt lat="43.47982" lon="6.22339">
        <ele>114</ele>
        <time>2024-01-28T11:40:34+01:00</time>
      </trkpt>
      <trkpt lat="43.47973" lon="6.22335">
        <ele>115</ele>
        <time>2024-01-28T11:40:46+01:00</time>
      </trkpt>
      <trkpt lat="43.47964" lon="6.22332">
        <ele>115</ele>
        <time>2024-01-28T11:40:52+01:00</time>
      </trkpt>
      <trkpt lat="43.47955" lon="6.22326">
        <ele>116</ele>
        <time>2024-01-28T11:41:02+01:00</time>
      </trkpt>
      <trkpt lat="43.47945" lon="6.22324">
        <ele>116</ele>
        <time>2024-01-28T11:41:09+01:00</time>
      </trkpt>
      <trkpt lat="43.47936" lon="6.22324">
        <ele>115</ele>
        <time>2024-01-28T11:41:17+01:00</time>
      </trkpt>
      <trkpt lat="43.47921" lon="6.22327">
        <ele>115</ele>
        <time>2024-01-28T11:41:38+01:00</time>
      </trkpt>
      <trkpt lat="43.47912" lon="6.22331">
        <ele>115</ele>
        <time>2024-01-28T11:41:47+01:00</time>
      </trkpt>
      <trkpt lat="43.47903" lon="6.22334">
        <ele>115</ele>
        <time>2024-01-28T11:41:56+01:00</time>
      </trkpt>
      <trkpt lat="43.47897" lon="6.22337">
        <ele>114</ele>
        <time>2024-01-28T11:42:25+01:00</time>
      </trkpt>
      <trkpt lat="43.47877" lon="6.22344">
        <ele>114</ele>
        <time>2024-01-28T11:42:44+01:00</time>
      </trkpt>
      <trkpt lat="43.47868" lon="6.22348">
        <ele>114</ele>
        <time>2024-01-28T11:42:52+01:00</time>
      </trkpt>
      <trkpt lat="43.47859" lon="6.22351">
        <ele>114</ele>
        <time>2024-01-28T11:43:00+01:00</time>
      </trkpt>
      <trkpt lat="43.4785" lon="6.22353">
        <ele>114</ele>
        <time>2024-01-28T11:43:08+01:00</time>
      </trkpt>
      <trkpt lat="43.4784" lon="6.22354">
        <ele>114</ele>
        <time>2024-01-28T11:43:16+01:00</time>
      </trkpt>
      <trkpt lat="43.4783" lon="6.22354">
        <ele>114</ele>
        <time>2024-01-28T11:43:25+01:00</time>
      </trkpt>
      <trkpt lat="43.47821" lon="6.22355">
        <ele>114</ele>
        <time>2024-01-28T11:43:33+01:00</time>
      </trkpt>
      <trkpt lat="43.47812" lon="6.22359">
        <ele>114</ele>
        <time>2024-01-28T11:43:41+01:00</time>
      </trkpt>
      <trkpt lat="43.47804" lon="6.22366">
        <ele>114</ele>
        <time>2024-01-28T11:43:48+01:00</time>
      </trkpt>
      <trkpt lat="43.47799" lon="6.22377">
        <ele>114</ele>
        <time>2024-01-28T11:43:57+01:00</time>
      </trkpt>
      <trkpt lat="43.4779" lon="6.22384">
        <ele>115</ele>
        <time>2024-01-28T11:44:08+01:00</time>
      </trkpt>
      <trkpt lat="43.47782" lon="6.2238">
        <ele>116</ele>
        <time>2024-01-28T11:44:17+01:00</time>
      </trkpt>
      <trkpt lat="43.47773" lon="6.22374">
        <ele>118</ele>
        <time>2024-01-28T11:44:26+01:00</time>
      </trkpt>
      <trkpt lat="43.47766" lon="6.22365">
        <ele>120</ele>
        <time>2024-01-28T11:44:38+01:00</time>
      </trkpt>
      <trkpt lat="43.47757" lon="6.22358">
        <ele>120</ele>
        <time>2024-01-28T11:44:47+01:00</time>
      </trkpt>
      <trkpt lat="43.47749" lon="6.22351">
        <ele>121</ele>
        <time>2024-01-28T11:44:59+01:00</time>
      </trkpt>
      <trkpt lat="43.47743" lon="6.22348">
        <ele>120</ele>
        <time>2024-01-28T11:45:08+01:00</time>
      </trkpt>
      <trkpt lat="43.47734" lon="6.22338">
        <ele>120</ele>
        <time>2024-01-28T11:45:09+01:00</time>
      </trkpt>
      <trkpt lat="43.47703" lon="6.2231">
        <ele>117</ele>
        <time>2024-01-28T11:46:41+01:00</time>
      </trkpt>
      <trkpt lat="43.47696" lon="6.22301">
        <ele>116</ele>
        <time>2024-01-28T11:46:50+01:00</time>
      </trkpt>
      <trkpt lat="43.47689" lon="6.22292">
        <ele>116</ele>
        <time>2024-01-28T11:47:00+01:00</time>
      </trkpt>
      <trkpt lat="43.47682" lon="6.22283">
        <ele>116</ele>
        <time>2024-01-28T11:47:12+01:00</time>
      </trkpt>
      <trkpt lat="43.47668" lon="6.22261">
        <ele>116</ele>
        <time>2024-01-28T11:47:40+01:00</time>
      </trkpt>
      <trkpt lat="43.47662" lon="6.22251">
        <ele>116</ele>
        <time>2024-01-28T11:47:48+01:00</time>
      </trkpt>
      <trkpt lat="43.47654" lon="6.22242">
        <ele>115</ele>
        <time>2024-01-28T11:47:59+01:00</time>
      </trkpt>
      <trkpt lat="43.47648" lon="6.22233">
        <ele>115</ele>
        <time>2024-01-28T11:48:07+01:00</time>
      </trkpt>
      <trkpt lat="43.47641" lon="6.22224">
        <ele>116</ele>
        <time>2024-01-28T11:48:15+01:00</time>
      </trkpt>
      <trkpt lat="43.47633" lon="6.22217">
        <ele>116</ele>
        <time>2024-01-28T11:48:26+01:00</time>
      </trkpt>
      <trkpt lat="43.47626" lon="6.22208">
        <ele>116</ele>
        <time>2024-01-28T11:48:35+01:00</time>
      </trkpt>
      <trkpt lat="43.47615" lon="6.22191">
        <ele>116</ele>
        <time>2024-01-28T11:49:02+01:00</time>
      </trkpt>
      <trkpt lat="43.47607" lon="6.22182">
        <ele>116</ele>
        <time>2024-01-28T11:49:10+01:00</time>
      </trkpt>
      <trkpt lat="43.476" lon="6.22173">
        <ele>116</ele>
        <time>2024-01-28T11:49:18+01:00</time>
      </trkpt>
      <trkpt lat="43.47593" lon="6.22165">
        <ele>116</ele>
        <time>2024-01-28T11:49:25+01:00</time>
      </trkpt>
      <trkpt lat="43.47586" lon="6.22155">
        <ele>116</ele>
        <time>2024-01-28T11:49:34+01:00</time>
      </trkpt>
      <trkpt lat="43.47579" lon="6.22146">
        <ele>117</ele>
        <time>2024-01-28T11:49:42+01:00</time>
      </trkpt>
      <trkpt lat="43.47572" lon="6.22137">
        <ele>117</ele>
        <time>2024-01-28T11:49:50+01:00</time>
      </trkpt>
      <trkpt lat="43.47565" lon="6.22127">
        <ele>117</ele>
        <time>2024-01-28T11:49:59+01:00</time>
      </trkpt>
      <trkpt lat="43.47558" lon="6.22119">
        <ele>117</ele>
        <time>2024-01-28T11:50:06+01:00</time>
      </trkpt>
      <trkpt lat="43.47551" lon="6.2211">
        <ele>117</ele>
        <time>2024-01-28T11:50:14+01:00</time>
      </trkpt>
      <trkpt lat="43.47545" lon="6.221">
        <ele>118</ele>
        <time>2024-01-28T11:50:23+01:00</time>
      </trkpt>
      <trkpt lat="43.47538" lon="6.2209">
        <ele>118</ele>
        <time>2024-01-28T11:50:31+01:00</time>
      </trkpt>
      <trkpt lat="43.47533" lon="6.2208">
        <ele>118</ele>
        <time>2024-01-28T11:50:40+01:00</time>
      </trkpt>
      <trkpt lat="43.47526" lon="6.2207">
        <ele>118</ele>
        <time>2024-01-28T11:50:48+01:00</time>
      </trkpt>
      <trkpt lat="43.47519" lon="6.22062">
        <ele>118</ele>
        <time>2024-01-28T11:50:56+01:00</time>
      </trkpt>
      <trkpt lat="43.47513" lon="6.22051">
        <ele>118</ele>
        <time>2024-01-28T11:51:05+01:00</time>
      </trkpt>
      <trkpt lat="43.47508" lon="6.2204">
        <ele>119</ele>
        <time>2024-01-28T11:51:15+01:00</time>
      </trkpt>
      <trkpt lat="43.47502" lon="6.2203">
        <ele>119</ele>
        <time>2024-01-28T11:51:24+01:00</time>
      </trkpt>
      <trkpt lat="43.47496" lon="6.2202">
        <ele>119</ele>
        <time>2024-01-28T11:51:32+01:00</time>
      </trkpt>
      <trkpt lat="43.47489" lon="6.2201">
        <ele>119</ele>
        <time>2024-01-28T11:51:41+01:00</time>
      </trkpt>
      <trkpt lat="43.47483" lon="6.22001">
        <ele>120</ele>
        <time>2024-01-28T11:51:49+01:00</time>
      </trkpt>
      <trkpt lat="43.47477" lon="6.2199">
        <ele>120</ele>
        <time>2024-01-28T11:51:58+01:00</time>
      </trkpt>
      <trkpt lat="43.47471" lon="6.21979">
        <ele>120</ele>
        <time>2024-01-28T11:52:08+01:00</time>
      </trkpt>
      <trkpt lat="43.47466" lon="6.21969">
        <ele>121</ele>
        <time>2024-01-28T11:52:18+01:00</time>
      </trkpt>
      <trkpt lat="43.47461" lon="6.21957">
        <ele>121</ele>
        <time>2024-01-28T11:52:28+01:00</time>
      </trkpt>
      <trkpt lat="43.47456" lon="6.21945">
        <ele>121</ele>
        <time>2024-01-28T11:52:37+01:00</time>
      </trkpt>
      <trkpt lat="43.47453" lon="6.21933">
        <ele>121</ele>
        <time>2024-01-28T11:52:45+01:00</time>
      </trkpt>
      <trkpt lat="43.47448" lon="6.21922">
        <ele>122</ele>
        <time>2024-01-28T11:52:54+01:00</time>
      </trkpt>
      <trkpt lat="43.47445" lon="6.2191">
        <ele>122</ele>
        <time>2024-01-28T11:53:03+01:00</time>
      </trkpt>
      <trkpt lat="43.47441" lon="6.21897">
        <ele>122</ele>
        <time>2024-01-28T11:53:12+01:00</time>
      </trkpt>
      <trkpt lat="43.47438" lon="6.21886">
        <ele>123</ele>
        <time>2024-01-28T11:53:21+01:00</time>
      </trkpt>
      <trkpt lat="43.47435" lon="6.21874">
        <ele>123</ele>
        <time>2024-01-28T11:53:29+01:00</time>
      </trkpt>
      <trkpt lat="43.47432" lon="6.21861">
        <ele>123</ele>
        <time>2024-01-28T11:53:38+01:00</time>
      </trkpt>
      <trkpt lat="43.47428" lon="6.21849">
        <ele>124</ele>
        <time>2024-01-28T11:53:46+01:00</time>
      </trkpt>
      <trkpt lat="43.47424" lon="6.21837">
        <ele>124</ele>
        <time>2024-01-28T11:53:55+01:00</time>
      </trkpt>
      <trkpt lat="43.4742" lon="6.21826">
        <ele>124</ele>
        <time>2024-01-28T11:54:04+01:00</time>
      </trkpt>
      <trkpt lat="43.47417" lon="6.21804">
        <ele>126</ele>
        <time>2024-01-28T11:54:11+01:00</time>
      </trkpt>
      <trkpt lat="43.47415" lon="6.21782">
        <ele>126</ele>
        <time>2024-01-28T11:54:12+01:00</time>
      </trkpt>
      <trkpt lat="43.47409" lon="6.21765">
        <ele>127</ele>
        <time>2024-01-28T11:54:18+01:00</time>
      </trkpt>
      <trkpt lat="43.47397" lon="6.21729">
        <ele>128</ele>
        <time>2024-01-28T11:57:48+01:00</time>
      </trkpt>
      <trkpt lat="43.47391" lon="6.21718">
        <ele>128</ele>
        <time>2024-01-28T11:57:56+01:00</time>
      </trkpt>
      <trkpt lat="43.47387" lon="6.21706">
        <ele>128</ele>
        <time>2024-01-28T11:58:04+01:00</time>
      </trkpt>
      <trkpt lat="43.47383" lon="6.21694">
        <ele>129</ele>
        <time>2024-01-28T11:58:12+01:00</time>
      </trkpt>
      <trkpt lat="43.47378" lon="6.21683">
        <ele>130</ele>
        <time>2024-01-28T11:58:20+01:00</time>
      </trkpt>
      <trkpt lat="43.47375" lon="6.2167">
        <ele>130</ele>
        <time>2024-01-28T11:58:30+01:00</time>
      </trkpt>
      <trkpt lat="43.4737" lon="6.21659">
        <ele>130</ele>
        <time>2024-01-28T11:58:38+01:00</time>
      </trkpt>
      <trkpt lat="43.47366" lon="6.21648">
        <ele>131</ele>
        <time>2024-01-28T11:58:47+01:00</time>
      </trkpt>
      <trkpt lat="43.47361" lon="6.21637">
        <ele>132</ele>
        <time>2024-01-28T11:58:56+01:00</time>
      </trkpt>
      <trkpt lat="43.47355" lon="6.21628">
        <ele>132</ele>
        <time>2024-01-28T11:59:06+01:00</time>
      </trkpt>
      <trkpt lat="43.47349" lon="6.21616">
        <ele>133</ele>
        <time>2024-01-28T11:59:15+01:00</time>
      </trkpt>
      <trkpt lat="43.47345" lon="6.21604">
        <ele>134</ele>
        <time>2024-01-28T11:59:23+01:00</time>
      </trkpt>
      <trkpt lat="43.47344" lon="6.21592">
        <ele>134</ele>
        <time>2024-01-28T11:59:35+01:00</time>
      </trkpt>
      <trkpt lat="43.47353" lon="6.21588">
        <ele>133</ele>
        <time>2024-01-28T11:59:47+01:00</time>
      </trkpt>
      <trkpt lat="43.47362" lon="6.21581">
        <ele>133</ele>
        <time>2024-01-28T11:59:56+01:00</time>
      </trkpt>
      <trkpt lat="43.4737" lon="6.21576">
        <ele>133</ele>
        <time>2024-01-28T12:00:05+01:00</time>
      </trkpt>
      <trkpt lat="43.47379" lon="6.21573">
        <ele>133</ele>
        <time>2024-01-28T12:00:16+01:00</time>
      </trkpt>
      <trkpt lat="43.47387" lon="6.21566">
        <ele>133</ele>
        <time>2024-01-28T12:00:24+01:00</time>
      </trkpt>
      <trkpt lat="43.47396" lon="6.21562">
        <ele>133</ele>
        <time>2024-01-28T12:00:33+01:00</time>
      </trkpt>
      <trkpt lat="43.47405" lon="6.21553">
        <ele>134</ele>
        <time>2024-01-28T12:00:41+01:00</time>
      </trkpt>
      <trkpt lat="43.47414" lon="6.21549">
        <ele>134</ele>
        <time>2024-01-28T12:00:54+01:00</time>
      </trkpt>
      <trkpt lat="43.4742" lon="6.21538">
        <ele>136</ele>
        <time>2024-01-28T12:01:05+01:00</time>
      </trkpt>
      <trkpt lat="43.47414" lon="6.21529">
        <ele>135</ele>
        <time>2024-01-28T12:01:14+01:00</time>
      </trkpt>
      <trkpt lat="43.47407" lon="6.21519">
        <ele>136</ele>
        <time>2024-01-28T12:01:22+01:00</time>
      </trkpt>
      <trkpt lat="43.47399" lon="6.21515">
        <ele>136</ele>
        <time>2024-01-28T12:01:35+01:00</time>
      </trkpt>
      <trkpt lat="43.47397" lon="6.21502">
        <ele>138</ele>
        <time>2024-01-28T12:02:05+01:00</time>
      </trkpt>
      <trkpt lat="43.47393" lon="6.21491">
        <ele>138</ele>
        <time>2024-01-28T12:02:23+01:00</time>
      </trkpt>
      <trkpt lat="43.47385" lon="6.21482">
        <ele>139</ele>
        <time>2024-01-28T12:02:31+01:00</time>
      </trkpt>
      <trkpt lat="43.47386" lon="6.2147">
        <ele>141</ele>
        <time>2024-01-28T12:02:43+01:00</time>
      </trkpt>
      <trkpt lat="43.47384" lon="6.21456">
        <ele>143</ele>
        <time>2024-01-28T12:02:53+01:00</time>
      </trkpt>
      <trkpt lat="43.47379" lon="6.21446">
        <ele>143</ele>
        <time>2024-01-28T12:03:02+01:00</time>
      </trkpt>
      <trkpt lat="43.47374" lon="6.21435">
        <ele>145</ele>
        <time>2024-01-28T12:03:10+01:00</time>
      </trkpt>
      <trkpt lat="43.47365" lon="6.2143">
        <ele>143</ele>
        <time>2024-01-28T12:03:17+01:00</time>
      </trkpt>
      <trkpt lat="43.47359" lon="6.2142">
        <ele>143</ele>
        <time>2024-01-28T12:03:26+01:00</time>
      </trkpt>
      <trkpt lat="43.47355" lon="6.21409">
        <ele>145</ele>
        <time>2024-01-28T12:03:37+01:00</time>
      </trkpt>
      <trkpt lat="43.47351" lon="6.21397">
        <ele>147</ele>
        <time>2024-01-28T12:03:50+01:00</time>
      </trkpt>
      <trkpt lat="43.47347" lon="6.21385">
        <ele>147</ele>
        <time>2024-01-28T12:03:58+01:00</time>
      </trkpt>
      <trkpt lat="43.47345" lon="6.21373">
        <ele>149</ele>
        <time>2024-01-28T12:04:09+01:00</time>
      </trkpt>
      <trkpt lat="43.47338" lon="6.21364">
        <ele>148</ele>
        <time>2024-01-28T12:04:19+01:00</time>
      </trkpt>
      <trkpt lat="43.47333" lon="6.21355">
        <ele>149</ele>
        <time>2024-01-28T12:04:28+01:00</time>
      </trkpt>
      <trkpt lat="43.47327" lon="6.21344">
        <ele>150</ele>
        <time>2024-01-28T12:04:38+01:00</time>
      </trkpt>
      <trkpt lat="43.47327" lon="6.2133">
        <ele>154</ele>
        <time>2024-01-28T12:04:52+01:00</time>
      </trkpt>
      <trkpt lat="43.47325" lon="6.21318">
        <ele>155</ele>
        <time>2024-01-28T12:05:01+01:00</time>
      </trkpt>
      <trkpt lat="43.47323" lon="6.21306">
        <ele>154</ele>
        <time>2024-01-28T12:05:10+01:00</time>
      </trkpt>
      <trkpt lat="43.47321" lon="6.21293">
        <ele>154</ele>
        <time>2024-01-28T12:05:19+01:00</time>
      </trkpt>
      <trkpt lat="43.47317" lon="6.21281">
        <ele>156</ele>
        <time>2024-01-28T12:05:31+01:00</time>
      </trkpt>
      <trkpt lat="43.47316" lon="6.21268">
        <ele>156</ele>
        <time>2024-01-28T12:05:40+01:00</time>
      </trkpt>
      <trkpt lat="43.47315" lon="6.21255">
        <ele>159</ele>
        <time>2024-01-28T12:05:50+01:00</time>
      </trkpt>
      <trkpt lat="43.47312" lon="6.21242">
        <ele>161</ele>
        <time>2024-01-28T12:06:00+01:00</time>
      </trkpt>
      <trkpt lat="43.47312" lon="6.21229">
        <ele>162</ele>
        <time>2024-01-28T12:06:12+01:00</time>
      </trkpt>
      <trkpt lat="43.47309" lon="6.21217">
        <ele>161</ele>
        <time>2024-01-28T12:06:22+01:00</time>
      </trkpt>
      <trkpt lat="43.47308" lon="6.21204">
        <ele>163</ele>
        <time>2024-01-28T12:06:30+01:00</time>
      </trkpt>
      <trkpt lat="43.47306" lon="6.21191">
        <ele>164</ele>
        <time>2024-01-28T12:06:41+01:00</time>
      </trkpt>
      <trkpt lat="43.47304" lon="6.21178">
        <ele>164</ele>
        <time>2024-01-28T12:06:50+01:00</time>
      </trkpt>
      <trkpt lat="43.47306" lon="6.21166">
        <ele>166</ele>
        <time>2024-01-28T12:07:04+01:00</time>
      </trkpt>
      <trkpt lat="43.47309" lon="6.21152">
        <ele>168</ele>
        <time>2024-01-28T12:07:14+01:00</time>
      </trkpt>
      <trkpt lat="43.47307" lon="6.21138">
        <ele>168</ele>
        <time>2024-01-28T12:07:22+01:00</time>
      </trkpt>
      <trkpt lat="43.47306" lon="6.21126">
        <ele>168</ele>
        <time>2024-01-28T12:07:32+01:00</time>
      </trkpt>
      <trkpt lat="43.47307" lon="6.21112">
        <ele>170</ele>
        <time>2024-01-28T12:07:47+01:00</time>
      </trkpt>
      <trkpt lat="43.47309" lon="6.21099">
        <ele>171</ele>
        <time>2024-01-28T12:07:58+01:00</time>
      </trkpt>
      <trkpt lat="43.47308" lon="6.21085">
        <ele>171</ele>
        <time>2024-01-28T12:08:07+01:00</time>
      </trkpt>
      <trkpt lat="43.47307" lon="6.21072">
        <ele>172</ele>
        <time>2024-01-28T12:08:16+01:00</time>
      </trkpt>
      <trkpt lat="43.47308" lon="6.21059">
        <ele>171</ele>
        <time>2024-01-28T12:08:23+01:00</time>
      </trkpt>
      <trkpt lat="43.47304" lon="6.21047">
        <ele>171</ele>
        <time>2024-01-28T12:08:34+01:00</time>
      </trkpt>
      <trkpt lat="43.473" lon="6.21035">
        <ele>173</ele>
        <time>2024-01-28T12:08:45+01:00</time>
      </trkpt>
      <trkpt lat="43.47299" lon="6.21022">
        <ele>174</ele>
        <time>2024-01-28T12:08:55+01:00</time>
      </trkpt>
      <trkpt lat="43.47296" lon="6.2101">
        <ele>175</ele>
        <time>2024-01-28T12:09:06+01:00</time>
      </trkpt>
      <trkpt lat="43.47296" lon="6.20998">
        <ele>175</ele>
        <time>2024-01-28T12:09:16+01:00</time>
      </trkpt>
      <trkpt lat="43.47291" lon="6.20986">
        <ele>175</ele>
        <time>2024-01-28T12:09:34+01:00</time>
      </trkpt>
      <trkpt lat="43.47287" lon="6.20975">
        <ele>174</ele>
        <time>2024-01-28T12:10:27+01:00</time>
      </trkpt>
      <trkpt lat="43.47287" lon="6.20961">
        <ele>178</ele>
        <time>2024-01-28T12:10:40+01:00</time>
      </trkpt>
      <trkpt lat="43.47282" lon="6.20949">
        <ele>179</ele>
        <time>2024-01-28T12:10:52+01:00</time>
      </trkpt>
      <trkpt lat="43.47282" lon="6.20936">
        <ele>180</ele>
        <time>2024-01-28T12:11:06+01:00</time>
      </trkpt>
      <trkpt lat="43.4729" lon="6.20941">
        <ele>181</ele>
        <time>2024-01-28T12:11:31+01:00</time>
      </trkpt>
      <trkpt lat="43.47292" lon="6.20953">
        <ele>179</ele>
        <time>2024-01-28T12:11:51+01:00</time>
      </trkpt>
      <trkpt lat="43.47297" lon="6.20963">
        <ele>180</ele>
        <time>2024-01-28T12:12:05+01:00</time>
      </trkpt>
      <trkpt lat="43.47301" lon="6.20976">
        <ele>182</ele>
        <time>2024-01-28T12:12:14+01:00</time>
      </trkpt>
      <trkpt lat="43.47307" lon="6.20987">
        <ele>183</ele>
        <time>2024-01-28T12:12:21+01:00</time>
      </trkpt>
      <trkpt lat="43.47313" lon="6.20997">
        <ele>183</ele>
        <time>2024-01-28T12:12:28+01:00</time>
      </trkpt>
      <trkpt lat="43.47319" lon="6.21006">
        <ele>183</ele>
        <time>2024-01-28T12:12:36+01:00</time>
      </trkpt>
      <trkpt lat="43.47324" lon="6.21016">
        <ele>184</ele>
        <time>2024-01-28T12:12:44+01:00</time>
      </trkpt>
      <trkpt lat="43.47331" lon="6.21025">
        <ele>184</ele>
        <time>2024-01-28T12:12:52+01:00</time>
      </trkpt>
      <trkpt lat="43.47339" lon="6.21032">
        <ele>185</ele>
        <time>2024-01-28T12:13:02+01:00</time>
      </trkpt>
      <trkpt lat="43.47348" lon="6.21037">
        <ele>186</ele>
        <time>2024-01-28T12:13:12+01:00</time>
      </trkpt>
      <trkpt lat="43.47357" lon="6.21039">
        <ele>187</ele>
        <time>2024-01-28T12:13:22+01:00</time>
      </trkpt>
      <trkpt lat="43.47367" lon="6.21037">
        <ele>187</ele>
        <time>2024-01-28T12:13:33+01:00</time>
      </trkpt>
      <trkpt lat="43.47375" lon="6.21041">
        <ele>189</ele>
        <time>2024-01-28T12:13:46+01:00</time>
      </trkpt>
      <trkpt lat="43.47384" lon="6.21047">
        <ele>190</ele>
        <time>2024-01-28T12:13:57+01:00</time>
      </trkpt>
      <trkpt lat="43.4738" lon="6.2106">
        <ele>191</ele>
        <time>2024-01-28T12:14:10+01:00</time>
      </trkpt>
      <trkpt lat="43.4738" lon="6.21074">
        <ele>191</ele>
        <time>2024-01-28T12:14:17+01:00</time>
      </trkpt>
      <trkpt lat="43.47381" lon="6.21088">
        <ele>191</ele>
        <time>2024-01-28T12:14:26+01:00</time>
      </trkpt>
      <trkpt lat="43.47383" lon="6.211">
        <ele>192</ele>
        <time>2024-01-28T12:14:35+01:00</time>
      </trkpt>
      <trkpt lat="43.47383" lon="6.21113">
        <ele>192</ele>
        <time>2024-01-28T12:14:46+01:00</time>
      </trkpt>
      <trkpt lat="43.47383" lon="6.21126">
        <ele>193</ele>
        <time>2024-01-28T12:14:54+01:00</time>
      </trkpt>
      <trkpt lat="43.47381" lon="6.21139">
        <ele>193</ele>
        <time>2024-01-28T12:15:03+01:00</time>
      </trkpt>
      <trkpt lat="43.47379" lon="6.21152">
        <ele>194</ele>
        <time>2024-01-28T12:15:12+01:00</time>
      </trkpt>
      <trkpt lat="43.47377" lon="6.21166">
        <ele>195</ele>
        <time>2024-01-28T12:15:21+01:00</time>
      </trkpt>
      <trkpt lat="43.47379" lon="6.21178">
        <ele>195</ele>
        <time>2024-01-28T12:15:31+01:00</time>
      </trkpt>
      <trkpt lat="43.47386" lon="6.21187">
        <ele>197</ele>
        <time>2024-01-28T12:15:41+01:00</time>
      </trkpt>
      <trkpt lat="43.47388" lon="6.21199">
        <ele>196</ele>
        <time>2024-01-28T12:15:52+01:00</time>
      </trkpt>
      <trkpt lat="43.47394" lon="6.2121">
        <ele>197</ele>
        <time>2024-01-28T12:16:01+01:00</time>
      </trkpt>
      <trkpt lat="43.47399" lon="6.21222">
        <ele>198</ele>
        <time>2024-01-28T12:16:12+01:00</time>
      </trkpt>
      <trkpt lat="43.47403" lon="6.21234">
        <ele>197</ele>
        <time>2024-01-28T12:16:21+01:00</time>
      </trkpt>
      <trkpt lat="43.47408" lon="6.21246">
        <ele>199</ele>
        <time>2024-01-28T12:16:31+01:00</time>
      </trkpt>
      <trkpt lat="43.4741" lon="6.21258">
        <ele>199</ele>
        <time>2024-01-28T12:16:39+01:00</time>
      </trkpt>
      <trkpt lat="43.47414" lon="6.21271">
        <ele>197</ele>
        <time>2024-01-28T12:16:48+01:00</time>
      </trkpt>
      <trkpt lat="43.47419" lon="6.21281">
        <ele>198</ele>
        <time>2024-01-28T12:16:56+01:00</time>
      </trkpt>
      <trkpt lat="43.47425" lon="6.21291">
        <ele>198</ele>
        <time>2024-01-28T12:17:04+01:00</time>
      </trkpt>
      <trkpt lat="43.4743" lon="6.21302">
        <ele>198</ele>
        <time>2024-01-28T12:17:11+01:00</time>
      </trkpt>
      <trkpt lat="43.47432" lon="6.21314">
        <ele>196</ele>
        <time>2024-01-28T12:17:18+01:00</time>
      </trkpt>
      <trkpt lat="43.47436" lon="6.21326">
        <ele>195</ele>
        <time>2024-01-28T12:17:28+01:00</time>
      </trkpt>
      <trkpt lat="43.47445" lon="6.21333">
        <ele>195</ele>
        <time>2024-01-28T12:18:25+01:00</time>
      </trkpt>
      <trkpt lat="43.47452" lon="6.2134">
        <ele>195</ele>
        <time>2024-01-28T12:18:31+01:00</time>
      </trkpt>
      <trkpt lat="43.4746" lon="6.21349">
        <ele>195</ele>
        <time>2024-01-28T12:18:37+01:00</time>
      </trkpt>
      <trkpt lat="43.47467" lon="6.21357">
        <ele>195</ele>
        <time>2024-01-28T12:18:45+01:00</time>
      </trkpt>
      <trkpt lat="43.47475" lon="6.21365">
        <ele>195</ele>
        <time>2024-01-28T12:18:54+01:00</time>
      </trkpt>
      <trkpt lat="43.47482" lon="6.21375">
        <ele>193</ele>
        <time>2024-01-28T12:19:01+01:00</time>
      </trkpt>
      <trkpt lat="43.47491" lon="6.21381">
        <ele>195</ele>
        <time>2024-01-28T12:19:06+01:00</time>
      </trkpt>
      <trkpt lat="43.475" lon="6.21385">
        <ele>195</ele>
        <time>2024-01-28T12:19:13+01:00</time>
      </trkpt>
      <trkpt lat="43.47509" lon="6.21381">
        <ele>195</ele>
        <time>2024-01-28T12:19:22+01:00</time>
      </trkpt>
      <trkpt lat="43.47518" lon="6.21379">
        <ele>194</ele>
        <time>2024-01-28T12:19:27+01:00</time>
      </trkpt>
      <trkpt lat="43.47526" lon="6.21372">
        <ele>195</ele>
        <time>2024-01-28T12:19:36+01:00</time>
      </trkpt>
      <trkpt lat="43.47532" lon="6.21362">
        <ele>195</ele>
        <time>2024-01-28T12:19:48+01:00</time>
      </trkpt>
      <trkpt lat="43.47537" lon="6.21352">
        <ele>195</ele>
        <time>2024-01-28T12:19:54+01:00</time>
      </trkpt>
      <trkpt lat="43.47542" lon="6.21341">
        <ele>195</ele>
        <time>2024-01-28T12:20:03+01:00</time>
      </trkpt>
      <trkpt lat="43.47549" lon="6.21329">
        <ele>197</ele>
        <time>2024-01-28T12:20:09+01:00</time>
      </trkpt>
      <trkpt lat="43.47557" lon="6.21322">
        <ele>196</ele>
        <time>2024-01-28T12:20:14+01:00</time>
      </trkpt>
      <trkpt lat="43.47562" lon="6.21311">
        <ele>197</ele>
        <time>2024-01-28T12:20:23+01:00</time>
      </trkpt>
      <trkpt lat="43.4757" lon="6.21304">
        <ele>196</ele>
        <time>2024-01-28T12:20:31+01:00</time>
      </trkpt>
      <trkpt lat="43.4758" lon="6.21301">
        <ele>196</ele>
        <time>2024-01-28T12:20:44+01:00</time>
      </trkpt>
      <trkpt lat="43.4759" lon="6.21303">
        <ele>196</ele>
        <time>2024-01-28T12:20:53+01:00</time>
      </trkpt>
      <trkpt lat="43.476" lon="6.21305">
        <ele>196</ele>
        <time>2024-01-28T12:21:00+01:00</time>
      </trkpt>
      <trkpt lat="43.47609" lon="6.21306">
        <ele>196</ele>
        <time>2024-01-28T12:21:14+01:00</time>
      </trkpt>
      <trkpt lat="43.47618" lon="6.21303">
        <ele>196</ele>
        <time>2024-01-28T12:21:38+01:00</time>
      </trkpt>
      <trkpt lat="43.47621" lon="6.2129">
        <ele>195</ele>
        <time>2024-01-28T12:22:54+01:00</time>
      </trkpt>
      <trkpt lat="43.47625" lon="6.21278">
        <ele>195</ele>
        <time>2024-01-28T12:23:03+01:00</time>
      </trkpt>
      <trkpt lat="43.4763" lon="6.21266">
        <ele>193</ele>
        <time>2024-01-28T12:23:14+01:00</time>
      </trkpt>
      <trkpt lat="43.47636" lon="6.21256">
        <ele>192</ele>
        <time>2024-01-28T12:23:24+01:00</time>
      </trkpt>
      <trkpt lat="43.47639" lon="6.21243">
        <ele>192</ele>
        <time>2024-01-28T12:23:35+01:00</time>
      </trkpt>
      <trkpt lat="43.47644" lon="6.21231">
        <ele>192</ele>
        <time>2024-01-28T12:23:43+01:00</time>
      </trkpt>
      <trkpt lat="43.47647" lon="6.2122">
        <ele>191</ele>
        <time>2024-01-28T12:23:51+01:00</time>
      </trkpt>
      <trkpt lat="43.47651" lon="6.21207">
        <ele>191</ele>
        <time>2024-01-28T12:23:59+01:00</time>
      </trkpt>
      <trkpt lat="43.47654" lon="6.21195">
        <ele>191</ele>
        <time>2024-01-28T12:24:08+01:00</time>
      </trkpt>
      <trkpt lat="43.47654" lon="6.21183">
        <ele>191</ele>
        <time>2024-01-28T12:24:14+01:00</time>
      </trkpt>
      <trkpt lat="43.47654" lon="6.2117">
        <ele>191</ele>
        <time>2024-01-28T12:24:22+01:00</time>
      </trkpt>
      <trkpt lat="43.47652" lon="6.21157">
        <ele>193</ele>
        <time>2024-01-28T12:24:31+01:00</time>
      </trkpt>
      <trkpt lat="43.47654" lon="6.21145">
        <ele>192</ele>
        <time>2024-01-28T12:24:38+01:00</time>
      </trkpt>
      <trkpt lat="43.47652" lon="6.21131">
        <ele>193</ele>
        <time>2024-01-28T12:24:48+01:00</time>
      </trkpt>
      <trkpt lat="43.47653" lon="6.21118">
        <ele>193</ele>
        <time>2024-01-28T12:24:55+01:00</time>
      </trkpt>
      <trkpt lat="43.47655" lon="6.21105">
        <ele>192</ele>
        <time>2024-01-28T12:25:04+01:00</time>
      </trkpt>
      <trkpt lat="43.47658" lon="6.21092">
        <ele>191</ele>
        <time>2024-01-28T12:25:15+01:00</time>
      </trkpt>
      <trkpt lat="43.4766" lon="6.2108">
        <ele>191</ele>
        <time>2024-01-28T12:25:24+01:00</time>
      </trkpt>
      <trkpt lat="43.47661" lon="6.21068">
        <ele>191</ele>
        <time>2024-01-28T12:25:35+01:00</time>
      </trkpt>
      <trkpt lat="43.47663" lon="6.21054">
        <ele>190</ele>
        <time>2024-01-28T12:25:43+01:00</time>
      </trkpt>
      <trkpt lat="43.47663" lon="6.21041">
        <ele>190</ele>
        <time>2024-01-28T12:25:53+01:00</time>
      </trkpt>
      <trkpt lat="43.4766" lon="6.21029">
        <ele>192</ele>
        <time>2024-01-28T12:26:02+01:00</time>
      </trkpt>
      <trkpt lat="43.4766" lon="6.21016">
        <ele>193</ele>
        <time>2024-01-28T12:26:11+01:00</time>
      </trkpt>
      <trkpt lat="43.47661" lon="6.21003">
        <ele>194</ele>
        <time>2024-01-28T12:26:23+01:00</time>
      </trkpt>
      <trkpt lat="43.4766" lon="6.2099">
        <ele>195</ele>
        <time>2024-01-28T12:26:35+01:00</time>
      </trkpt>
      <trkpt lat="43.47662" lon="6.20977">
        <ele>195</ele>
        <time>2024-01-28T12:26:45+01:00</time>
      </trkpt>
      <trkpt lat="43.47664" lon="6.20965">
        <ele>195</ele>
        <time>2024-01-28T12:26:54+01:00</time>
      </trkpt>
      <trkpt lat="43.47664" lon="6.20952">
        <ele>195</ele>
        <time>2024-01-28T12:27:02+01:00</time>
      </trkpt>
      <trkpt lat="43.47664" lon="6.20939">
        <ele>196</ele>
        <time>2024-01-28T12:27:13+01:00</time>
      </trkpt>
      <trkpt lat="43.47665" lon="6.20926">
        <ele>196</ele>
        <time>2024-01-28T12:27:23+01:00</time>
      </trkpt>
      <trkpt lat="43.4767" lon="6.20914">
        <ele>195</ele>
        <time>2024-01-28T12:27:29+01:00</time>
      </trkpt>
      <trkpt lat="43.47673" lon="6.20902">
        <ele>195</ele>
        <time>2024-01-28T12:27:37+01:00</time>
      </trkpt>
      <trkpt lat="43.47671" lon="6.2089">
        <ele>196</ele>
        <time>2024-01-28T12:27:48+01:00</time>
      </trkpt>
      <trkpt lat="43.47674" lon="6.20877">
        <ele>196</ele>
        <time>2024-01-28T12:28:00+01:00</time>
      </trkpt>
      <trkpt lat="43.47681" lon="6.20867">
        <ele>194</ele>
        <time>2024-01-28T12:28:07+01:00</time>
      </trkpt>
      <trkpt lat="43.47684" lon="6.20855">
        <ele>195</ele>
        <time>2024-01-28T12:28:14+01:00</time>
      </trkpt>
      <trkpt lat="43.47677" lon="6.20846">
        <ele>197</ele>
        <time>2024-01-28T12:28:51+01:00</time>
      </trkpt>
      <trkpt lat="43.47683" lon="6.20834">
        <ele>196</ele>
        <time>2024-01-28T12:29:00+01:00</time>
      </trkpt>
      <trkpt lat="43.47688" lon="6.20821">
        <ele>195</ele>
        <time>2024-01-28T12:29:08+01:00</time>
      </trkpt>
      <trkpt lat="43.47692" lon="6.20808">
        <ele>194</ele>
        <time>2024-01-28T12:29:17+01:00</time>
      </trkpt>
      <trkpt lat="43.47696" lon="6.20796">
        <ele>194</ele>
        <time>2024-01-28T12:29:24+01:00</time>
      </trkpt>
      <trkpt lat="43.47701" lon="6.20784">
        <ele>193</ele>
        <time>2024-01-28T12:29:34+01:00</time>
      </trkpt>
      <trkpt lat="43.47704" lon="6.2077">
        <ele>192</ele>
        <time>2024-01-28T12:29:40+01:00</time>
      </trkpt>
      <trkpt lat="43.47705" lon="6.20757">
        <ele>193</ele>
        <time>2024-01-28T12:29:48+01:00</time>
      </trkpt>
      <trkpt lat="43.47709" lon="6.20746">
        <ele>191</ele>
        <time>2024-01-28T12:30:00+01:00</time>
      </trkpt>
      <trkpt lat="43.47713" lon="6.20733">
        <ele>190</ele>
        <time>2024-01-28T12:30:09+01:00</time>
      </trkpt>
      <trkpt lat="43.47717" lon="6.2072">
        <ele>189</ele>
        <time>2024-01-28T12:30:16+01:00</time>
      </trkpt>
      <trkpt lat="43.47721" lon="6.20709">
        <ele>188</ele>
        <time>2024-01-28T12:30:23+01:00</time>
      </trkpt>
      <trkpt lat="43.47726" lon="6.20698">
        <ele>186</ele>
        <time>2024-01-28T12:30:30+01:00</time>
      </trkpt>
      <trkpt lat="43.47726" lon="6.20685">
        <ele>186</ele>
        <time>2024-01-28T12:30:37+01:00</time>
      </trkpt>
      <trkpt lat="43.47727" lon="6.20671">
        <ele>186</ele>
        <time>2024-01-28T12:30:46+01:00</time>
      </trkpt>
      <trkpt lat="43.47731" lon="6.20659">
        <ele>184</ele>
        <time>2024-01-28T12:30:55+01:00</time>
      </trkpt>
      <trkpt lat="43.47733" lon="6.20645">
        <ele>185</ele>
        <time>2024-01-28T12:31:02+01:00</time>
      </trkpt>
      <trkpt lat="43.47738" lon="6.20634">
        <ele>183</ele>
        <time>2024-01-28T12:31:10+01:00</time>
      </trkpt>
      <trkpt lat="43.47742" lon="6.20622">
        <ele>183</ele>
        <time>2024-01-28T12:31:20+01:00</time>
      </trkpt>
      <trkpt lat="43.4774" lon="6.20609">
        <ele>184</ele>
        <time>2024-01-28T12:31:29+01:00</time>
      </trkpt>
      <trkpt lat="43.47743" lon="6.20597">
        <ele>183</ele>
        <time>2024-01-28T12:31:36+01:00</time>
      </trkpt>
      <trkpt lat="43.47747" lon="6.20584">
        <ele>182</ele>
        <time>2024-01-28T12:31:46+01:00</time>
      </trkpt>
      <trkpt lat="43.47754" lon="6.20575">
        <ele>180</ele>
        <time>2024-01-28T12:31:57+01:00</time>
      </trkpt>
      <trkpt lat="43.47755" lon="6.20562">
        <ele>180</ele>
        <time>2024-01-28T12:32:09+01:00</time>
      </trkpt>
      <trkpt lat="43.4776" lon="6.20551">
        <ele>180</ele>
        <time>2024-01-28T12:32:18+01:00</time>
      </trkpt>
      <trkpt lat="43.47762" lon="6.20538">
        <ele>180</ele>
        <time>2024-01-28T12:32:30+01:00</time>
      </trkpt>
      <trkpt lat="43.47768" lon="6.20527">
        <ele>179</ele>
        <time>2024-01-28T12:32:36+01:00</time>
      </trkpt>
      <trkpt lat="43.47771" lon="6.20515">
        <ele>178</ele>
        <time>2024-01-28T12:32:59+01:00</time>
      </trkpt>
      <trkpt lat="43.47767" lon="6.20503">
        <ele>178</ele>
        <time>2024-01-28T12:34:29+01:00</time>
      </trkpt>
      <trkpt lat="43.4776" lon="6.20495">
        <ele>179</ele>
        <time>2024-01-28T12:34:37+01:00</time>
      </trkpt>
      <trkpt lat="43.47754" lon="6.20485">
        <ele>178</ele>
        <time>2024-01-28T12:34:49+01:00</time>
      </trkpt>
      <trkpt lat="43.47746" lon="6.20476">
        <ele>178</ele>
        <time>2024-01-28T12:34:55+01:00</time>
      </trkpt>
      <trkpt lat="43.4774" lon="6.20465">
        <ele>179</ele>
        <time>2024-01-28T12:35:05+01:00</time>
      </trkpt>
      <trkpt lat="43.47733" lon="6.20456">
        <ele>179</ele>
        <time>2024-01-28T12:35:14+01:00</time>
      </trkpt>
      <trkpt lat="43.47726" lon="6.20447">
        <ele>178</ele>
        <time>2024-01-28T12:35:25+01:00</time>
      </trkpt>
      <trkpt lat="43.47725" lon="6.20434">
        <ele>178</ele>
        <time>2024-01-28T12:35:33+01:00</time>
      </trkpt>
      <trkpt lat="43.47721" lon="6.20422">
        <ele>178</ele>
        <time>2024-01-28T12:35:40+01:00</time>
      </trkpt>
      <trkpt lat="43.47718" lon="6.2041">
        <ele>179</ele>
        <time>2024-01-28T12:35:48+01:00</time>
      </trkpt>
      <trkpt lat="43.47719" lon="6.20398">
        <ele>179</ele>
        <time>2024-01-28T12:35:58+01:00</time>
      </trkpt>
      <trkpt lat="43.47717" lon="6.20384">
        <ele>180</ele>
        <time>2024-01-28T12:36:07+01:00</time>
      </trkpt>
      <trkpt lat="43.47717" lon="6.20372">
        <ele>180</ele>
        <time>2024-01-28T12:36:21+01:00</time>
      </trkpt>
      <trkpt lat="43.47711" lon="6.20363">
        <ele>181</ele>
        <time>2024-01-28T12:36:33+01:00</time>
      </trkpt>
      <trkpt lat="43.47702" lon="6.2036">
        <ele>181</ele>
        <time>2024-01-28T12:36:41+01:00</time>
      </trkpt>
      <trkpt lat="43.47693" lon="6.20359">
        <ele>181</ele>
        <time>2024-01-28T12:36:51+01:00</time>
      </trkpt>
      <trkpt lat="43.47684" lon="6.20361">
        <ele>181</ele>
        <time>2024-01-28T12:37:14+01:00</time>
      </trkpt>
      <trkpt lat="43.47673" lon="6.20361">
        <ele>182</ele>
        <time>2024-01-28T12:37:22+01:00</time>
      </trkpt>
      <trkpt lat="43.47664" lon="6.20361">
        <ele>182</ele>
        <time>2024-01-28T12:37:33+01:00</time>
      </trkpt>
      <trkpt lat="43.47654" lon="6.20362">
        <ele>180</ele>
        <time>2024-01-28T12:37:40+01:00</time>
      </trkpt>
      <trkpt lat="43.47645" lon="6.20362">
        <ele>179</ele>
        <time>2024-01-28T12:37:47+01:00</time>
      </trkpt>
      <trkpt lat="43.47637" lon="6.20358">
        <ele>178</ele>
        <time>2024-01-28T12:37:57+01:00</time>
      </trkpt>
      <trkpt lat="43.47629" lon="6.20352">
        <ele>175</ele>
        <time>2024-01-28T12:38:08+01:00</time>
      </trkpt>
      <trkpt lat="43.47619" lon="6.20347">
        <ele>174</ele>
        <time>2024-01-28T12:38:17+01:00</time>
      </trkpt>
      <trkpt lat="43.47611" lon="6.20341">
        <ele>172</ele>
        <time>2024-01-28T12:38:27+01:00</time>
      </trkpt>
      <trkpt lat="43.47603" lon="6.20334">
        <ele>172</ele>
        <time>2024-01-28T12:38:38+01:00</time>
      </trkpt>
      <trkpt lat="43.47595" lon="6.20327">
        <ele>171</ele>
        <time>2024-01-28T12:38:59+01:00</time>
      </trkpt>
      <trkpt lat="43.47586" lon="6.20315">
        <ele>168</ele>
        <time>2024-01-28T12:40:07+01:00</time>
      </trkpt>
      <trkpt lat="43.47578" lon="6.20304">
        <ele>166</ele>
        <time>2024-01-28T13:39:09+01:00</time>
      </trkpt>
      <trkpt lat="43.47568" lon="6.20303">
        <ele>165</ele>
        <time>2024-01-28T13:39:22+01:00</time>
      </trkpt>
      <trkpt lat="43.47559" lon="6.20303">
        <ele>164</ele>
        <time>2024-01-28T13:39:37+01:00</time>
      </trkpt>
      <trkpt lat="43.4755" lon="6.203">
        <ele>164</ele>
        <time>2024-01-28T13:39:47+01:00</time>
      </trkpt>
      <trkpt lat="43.47541" lon="6.203">
        <ele>163</ele>
        <time>2024-01-28T13:39:57+01:00</time>
      </trkpt>
      <trkpt lat="43.47531" lon="6.20299">
        <ele>163</ele>
        <time>2024-01-28T13:40:07+01:00</time>
      </trkpt>
      <trkpt lat="43.47522" lon="6.20298">
        <ele>163</ele>
        <time>2024-01-28T13:40:17+01:00</time>
      </trkpt>
      <trkpt lat="43.47512" lon="6.20297">
        <ele>162</ele>
        <time>2024-01-28T13:40:27+01:00</time>
      </trkpt>
      <trkpt lat="43.47502" lon="6.20294">
        <ele>162</ele>
        <time>2024-01-28T13:40:36+01:00</time>
      </trkpt>
      <trkpt lat="43.47493" lon="6.20291">
        <ele>164</ele>
        <time>2024-01-28T13:40:46+01:00</time>
      </trkpt>
      <trkpt lat="43.47495" lon="6.20278">
        <ele>164</ele>
        <time>2024-01-28T13:41:01+01:00</time>
      </trkpt>
      <trkpt lat="43.475" lon="6.20265">
        <ele>164</ele>
        <time>2024-01-28T13:41:09+01:00</time>
      </trkpt>
      <trkpt lat="43.47498" lon="6.20252">
        <ele>164</ele>
        <time>2024-01-28T13:41:20+01:00</time>
      </trkpt>
      <trkpt lat="43.47498" lon="6.20238">
        <ele>165</ele>
        <time>2024-01-28T13:41:30+01:00</time>
      </trkpt>
      <trkpt lat="43.47504" lon="6.20228">
        <ele>163</ele>
        <time>2024-01-28T13:41:36+01:00</time>
      </trkpt>
      <trkpt lat="43.47502" lon="6.20216">
        <ele>164</ele>
        <time>2024-01-28T13:41:45+01:00</time>
      </trkpt>
      <trkpt lat="43.47502" lon="6.20203">
        <ele>164</ele>
        <time>2024-01-28T13:41:54+01:00</time>
      </trkpt>
      <trkpt lat="43.47504" lon="6.2019">
        <ele>164</ele>
        <time>2024-01-28T13:42:03+01:00</time>
      </trkpt>
      <trkpt lat="43.47503" lon="6.20177">
        <ele>164</ele>
        <time>2024-01-28T13:42:12+01:00</time>
      </trkpt>
      <trkpt lat="43.475" lon="6.20164">
        <ele>164</ele>
        <time>2024-01-28T13:42:21+01:00</time>
      </trkpt>
      <trkpt lat="43.47495" lon="6.20152">
        <ele>164</ele>
        <time>2024-01-28T13:42:29+01:00</time>
      </trkpt>
      <trkpt lat="43.4749" lon="6.20141">
        <ele>164</ele>
        <time>2024-01-28T13:42:38+01:00</time>
      </trkpt>
      <trkpt lat="43.47489" lon="6.20129">
        <ele>163</ele>
        <time>2024-01-28T13:42:47+01:00</time>
      </trkpt>
      <trkpt lat="43.47492" lon="6.20092">
        <ele>161</ele>
        <time>2024-01-28T13:52:08+01:00</time>
      </trkpt>
      <trkpt lat="43.47494" lon="6.20079">
        <ele>161</ele>
        <time>2024-01-28T13:52:15+01:00</time>
      </trkpt>
      <trkpt lat="43.47494" lon="6.20066">
        <ele>160</ele>
        <time>2024-01-28T13:52:22+01:00</time>
      </trkpt>
      <trkpt lat="43.47492" lon="6.20053">
        <ele>160</ele>
        <time>2024-01-28T13:52:30+01:00</time>
      </trkpt>
      <trkpt lat="43.47494" lon="6.2004">
        <ele>160</ele>
        <time>2024-01-28T13:52:38+01:00</time>
      </trkpt>
      <trkpt lat="43.47494" lon="6.20028">
        <ele>160</ele>
        <time>2024-01-28T13:53:04+01:00</time>
      </trkpt>
      <trkpt lat="43.47495" lon="6.20014">
        <ele>160</ele>
        <time>2024-01-28T13:53:18+01:00</time>
      </trkpt>
      <trkpt lat="43.47494" lon="6.20001">
        <ele>160</ele>
        <time>2024-01-28T13:53:41+01:00</time>
      </trkpt>
      <trkpt lat="43.47495" lon="6.19988">
        <ele>160</ele>
        <time>2024-01-28T13:53:51+01:00</time>
      </trkpt>
      <trkpt lat="43.47496" lon="6.19975">
        <ele>160</ele>
        <time>2024-01-28T13:54:01+01:00</time>
      </trkpt>
      <trkpt lat="43.47497" lon="6.19961">
        <ele>159</ele>
        <time>2024-01-28T13:54:10+01:00</time>
      </trkpt>
      <trkpt lat="43.47496" lon="6.19948">
        <ele>160</ele>
        <time>2024-01-28T13:54:20+01:00</time>
      </trkpt>
      <trkpt lat="43.47498" lon="6.19934">
        <ele>160</ele>
        <time>2024-01-28T13:54:30+01:00</time>
      </trkpt>
      <trkpt lat="43.47498" lon="6.19921">
        <ele>159</ele>
        <time>2024-01-28T13:54:41+01:00</time>
      </trkpt>
      <trkpt lat="43.47501" lon="6.19908">
        <ele>159</ele>
        <time>2024-01-28T13:54:50+01:00</time>
      </trkpt>
      <trkpt lat="43.47497" lon="6.19896">
        <ele>159</ele>
        <time>2024-01-28T13:54:58+01:00</time>
      </trkpt>
      <trkpt lat="43.47489" lon="6.19893">
        <ele>159</ele>
        <time>2024-01-28T13:55:06+01:00</time>
      </trkpt>
      <trkpt lat="43.47479" lon="6.1989">
        <ele>159</ele>
        <time>2024-01-28T13:55:15+01:00</time>
      </trkpt>
      <trkpt lat="43.4747" lon="6.19888">
        <ele>159</ele>
        <time>2024-01-28T13:55:24+01:00</time>
      </trkpt>
      <trkpt lat="43.4746" lon="6.19886">
        <ele>159</ele>
        <time>2024-01-28T13:55:34+01:00</time>
      </trkpt>
      <trkpt lat="43.47451" lon="6.19884">
        <ele>159</ele>
        <time>2024-01-28T13:55:43+01:00</time>
      </trkpt>
      <trkpt lat="43.47442" lon="6.19884">
        <ele>159</ele>
        <time>2024-01-28T13:55:51+01:00</time>
      </trkpt>
      <trkpt lat="43.47432" lon="6.19881">
        <ele>159</ele>
        <time>2024-01-28T13:55:59+01:00</time>
      </trkpt>
      <trkpt lat="43.47423" lon="6.19879">
        <ele>159</ele>
        <time>2024-01-28T13:56:07+01:00</time>
      </trkpt>
      <trkpt lat="43.47414" lon="6.19876">
        <ele>159</ele>
        <time>2024-01-28T13:56:15+01:00</time>
      </trkpt>
      <trkpt lat="43.47404" lon="6.19876">
        <ele>159</ele>
        <time>2024-01-28T13:56:24+01:00</time>
      </trkpt>
      <trkpt lat="43.47395" lon="6.19873">
        <ele>159</ele>
        <time>2024-01-28T13:56:33+01:00</time>
      </trkpt>
      <trkpt lat="43.47385" lon="6.1987">
        <ele>156</ele>
        <time>2024-01-28T13:56:42+01:00</time>
      </trkpt>
      <trkpt lat="43.47376" lon="6.19866">
        <ele>155</ele>
        <time>2024-01-28T13:56:52+01:00</time>
      </trkpt>
      <trkpt lat="43.47369" lon="6.19859">
        <ele>154</ele>
        <time>2024-01-28T13:57:04+01:00</time>
      </trkpt>
      <trkpt lat="43.47365" lon="6.19846">
        <ele>152</ele>
        <time>2024-01-28T13:57:14+01:00</time>
      </trkpt>
      <trkpt lat="43.47358" lon="6.19837">
        <ele>151</ele>
        <time>2024-01-28T13:57:22+01:00</time>
      </trkpt>
      <trkpt lat="43.47356" lon="6.19825">
        <ele>150</ele>
        <time>2024-01-28T13:57:30+01:00</time>
      </trkpt>
      <trkpt lat="43.47353" lon="6.19813">
        <ele>150</ele>
        <time>2024-01-28T13:57:39+01:00</time>
      </trkpt>
      <trkpt lat="43.47349" lon="6.19802">
        <ele>149</ele>
        <time>2024-01-28T13:57:47+01:00</time>
      </trkpt>
      <trkpt lat="43.47343" lon="6.19792">
        <ele>147</ele>
        <time>2024-01-28T13:57:56+01:00</time>
      </trkpt>
      <trkpt lat="43.47336" lon="6.19782">
        <ele>147</ele>
        <time>2024-01-28T13:58:04+01:00</time>
      </trkpt>
      <trkpt lat="43.4733" lon="6.19773">
        <ele>147</ele>
        <time>2024-01-28T13:58:10+01:00</time>
      </trkpt>
      <trkpt lat="43.47324" lon="6.19762">
        <ele>146</ele>
        <time>2024-01-28T13:58:19+01:00</time>
      </trkpt>
      <trkpt lat="43.47319" lon="6.19751">
        <ele>146</ele>
        <time>2024-01-28T13:58:28+01:00</time>
      </trkpt>
      <trkpt lat="43.47313" lon="6.19741">
        <ele>145</ele>
        <time>2024-01-28T13:58:36+01:00</time>
      </trkpt>
      <trkpt lat="43.47306" lon="6.19732">
        <ele>145</ele>
        <time>2024-01-28T13:58:45+01:00</time>
      </trkpt>
      <trkpt lat="43.473" lon="6.19721">
        <ele>144</ele>
        <time>2024-01-28T13:58:53+01:00</time>
      </trkpt>
      <trkpt lat="43.47295" lon="6.1971">
        <ele>145</ele>
        <time>2024-01-28T13:59:02+01:00</time>
      </trkpt>
      <trkpt lat="43.47286" lon="6.19705">
        <ele>144</ele>
        <time>2024-01-28T13:59:11+01:00</time>
      </trkpt>
      <trkpt lat="43.4728" lon="6.19695">
        <ele>144</ele>
        <time>2024-01-28T13:59:20+01:00</time>
      </trkpt>
      <trkpt lat="43.47275" lon="6.19683">
        <ele>144</ele>
        <time>2024-01-28T13:59:29+01:00</time>
      </trkpt>
      <trkpt lat="43.47269" lon="6.19672">
        <ele>143</ele>
        <time>2024-01-28T13:59:36+01:00</time>
      </trkpt>
      <trkpt lat="43.47272" lon="6.19659">
        <ele>144</ele>
        <time>2024-01-28T13:59:44+01:00</time>
      </trkpt>
      <trkpt lat="43.47273" lon="6.19646">
        <ele>144</ele>
        <time>2024-01-28T13:59:54+01:00</time>
      </trkpt>
      <trkpt lat="43.47272" lon="6.19633">
        <ele>145</ele>
        <time>2024-01-28T14:00:03+01:00</time>
      </trkpt>
      <trkpt lat="43.47275" lon="6.19621">
        <ele>145</ele>
        <time>2024-01-28T14:00:11+01:00</time>
      </trkpt>
      <trkpt lat="43.47277" lon="6.19609">
        <ele>144</ele>
        <time>2024-01-28T14:00:22+01:00</time>
      </trkpt>
      <trkpt lat="43.47286" lon="6.19612">
        <ele>148</ele>
        <time>2024-01-28T14:01:39+01:00</time>
      </trkpt>
      <trkpt lat="43.47287" lon="6.19624">
        <ele>149</ele>
        <time>2024-01-28T14:01:53+01:00</time>
      </trkpt>
      <trkpt lat="43.47296" lon="6.1962">
        <ele>151</ele>
        <time>2024-01-28T14:02:06+01:00</time>
      </trkpt>
      <trkpt lat="43.47303" lon="6.19611">
        <ele>154</ele>
        <time>2024-01-28T14:02:20+01:00</time>
      </trkpt>
      <trkpt lat="43.47312" lon="6.19607">
        <ele>155</ele>
        <time>2024-01-28T14:02:51+01:00</time>
      </trkpt>
      <trkpt lat="43.4732" lon="6.19599">
        <ele>155</ele>
        <time>2024-01-28T14:03:00+01:00</time>
      </trkpt>
      <trkpt lat="43.47325" lon="6.19587">
        <ele>155</ele>
        <time>2024-01-28T14:03:09+01:00</time>
      </trkpt>
      <trkpt lat="43.4733" lon="6.19576">
        <ele>156</ele>
        <time>2024-01-28T14:03:19+01:00</time>
      </trkpt>
      <trkpt lat="43.47335" lon="6.19565">
        <ele>155</ele>
        <time>2024-01-28T14:03:36+01:00</time>
      </trkpt>
      <trkpt lat="43.47341" lon="6.19556">
        <ele>155</ele>
        <time>2024-01-28T14:03:44+01:00</time>
      </trkpt>
      <trkpt lat="43.47347" lon="6.19546">
        <ele>155</ele>
        <time>2024-01-28T14:03:53+01:00</time>
      </trkpt>
      <trkpt lat="43.47354" lon="6.19538">
        <ele>154</ele>
        <time>2024-01-28T14:04:01+01:00</time>
      </trkpt>
      <trkpt lat="43.47359" lon="6.19527">
        <ele>154</ele>
        <time>2024-01-28T14:04:12+01:00</time>
      </trkpt>
      <trkpt lat="43.47365" lon="6.19515">
        <ele>154</ele>
        <time>2024-01-28T14:04:20+01:00</time>
      </trkpt>
      <trkpt lat="43.47366" lon="6.19502">
        <ele>153</ele>
        <time>2024-01-28T14:04:28+01:00</time>
      </trkpt>
      <trkpt lat="43.47367" lon="6.1949">
        <ele>153</ele>
        <time>2024-01-28T14:04:37+01:00</time>
      </trkpt>
      <trkpt lat="43.47371" lon="6.19478">
        <ele>154</ele>
        <time>2024-01-28T14:04:53+01:00</time>
      </trkpt>
      <trkpt lat="43.47375" lon="6.19467">
        <ele>157</ele>
        <time>2024-01-28T14:05:16+01:00</time>
      </trkpt>
      <trkpt lat="43.47377" lon="6.19455">
        <ele>158</ele>
        <time>2024-01-28T14:05:34+01:00</time>
      </trkpt>
      <trkpt lat="43.47381" lon="6.19444">
        <ele>159</ele>
        <time>2024-01-28T14:06:06+01:00</time>
      </trkpt>
      <trkpt lat="43.4739" lon="6.19448">
        <ele>161</ele>
        <time>2024-01-28T14:06:28+01:00</time>
      </trkpt>
      <trkpt lat="43.474" lon="6.19449">
        <ele>162</ele>
        <time>2024-01-28T14:07:15+01:00</time>
      </trkpt>
      <trkpt lat="43.47409" lon="6.19447">
        <ele>165</ele>
        <time>2024-01-28T14:07:24+01:00</time>
      </trkpt>
      <trkpt lat="43.47417" lon="6.19454">
        <ele>165</ele>
        <time>2024-01-28T14:07:38+01:00</time>
      </trkpt>
      <trkpt lat="43.47426" lon="6.19457">
        <ele>166</ele>
        <time>2024-01-28T14:07:51+01:00</time>
      </trkpt>
      <trkpt lat="43.47433" lon="6.19448">
        <ele>166</ele>
        <time>2024-01-28T14:08:57+01:00</time>
      </trkpt>
      <trkpt lat="43.47433" lon="6.19435">
        <ele>167</ele>
        <time>2024-01-28T14:09:09+01:00</time>
      </trkpt>
      <trkpt lat="43.47434" lon="6.19422">
        <ele>167</ele>
        <time>2024-01-28T14:09:19+01:00</time>
      </trkpt>
      <trkpt lat="43.47431" lon="6.19409">
        <ele>168</ele>
        <time>2024-01-28T14:09:29+01:00</time>
      </trkpt>
      <trkpt lat="43.47432" lon="6.19396">
        <ele>168</ele>
        <time>2024-01-28T14:09:39+01:00</time>
      </trkpt>
      <trkpt lat="43.47429" lon="6.19385">
        <ele>168</ele>
        <time>2024-01-28T14:09:52+01:00</time>
      </trkpt>
      <trkpt lat="43.47429" lon="6.19372">
        <ele>168</ele>
        <time>2024-01-28T14:10:19+01:00</time>
      </trkpt>
      <trkpt lat="43.47433" lon="6.1936">
        <ele>168</ele>
        <time>2024-01-28T14:10:29+01:00</time>
      </trkpt>
      <trkpt lat="43.47443" lon="6.19357">
        <ele>168</ele>
        <time>2024-01-28T14:10:40+01:00</time>
      </trkpt>
      <trkpt lat="43.47453" lon="6.19356">
        <ele>167</ele>
        <time>2024-01-28T14:10:47+01:00</time>
      </trkpt>
      <trkpt lat="43.47462" lon="6.19356">
        <ele>166</ele>
        <time>2024-01-28T14:10:55+01:00</time>
      </trkpt>
      <trkpt lat="43.47472" lon="6.19356">
        <ele>165</ele>
        <time>2024-01-28T14:11:05+01:00</time>
      </trkpt>
      <trkpt lat="43.47481" lon="6.19356">
        <ele>162</ele>
        <time>2024-01-28T14:11:19+01:00</time>
      </trkpt>
      <trkpt lat="43.47491" lon="6.19355">
        <ele>161</ele>
        <time>2024-01-28T14:11:29+01:00</time>
      </trkpt>
      <trkpt lat="43.475" lon="6.19353">
        <ele>160</ele>
        <time>2024-01-28T14:11:40+01:00</time>
      </trkpt>
      <trkpt lat="43.47506" lon="6.19343">
        <ele>159</ele>
        <time>2024-01-28T14:11:48+01:00</time>
      </trkpt>
      <trkpt lat="43.47505" lon="6.1933">
        <ele>160</ele>
        <time>2024-01-28T14:11:56+01:00</time>
      </trkpt>
      <trkpt lat="43.47503" lon="6.19317">
        <ele>160</ele>
        <time>2024-01-28T14:12:23+01:00</time>
      </trkpt>
      <trkpt lat="43.47504" lon="6.19304">
        <ele>160</ele>
        <time>2024-01-28T14:12:47+01:00</time>
      </trkpt>
      <trkpt lat="43.47504" lon="6.1929">
        <ele>161</ele>
        <time>2024-01-28T14:12:56+01:00</time>
      </trkpt>
      <trkpt lat="43.47503" lon="6.19277">
        <ele>162</ele>
        <time>2024-01-28T14:13:07+01:00</time>
      </trkpt>
      <trkpt lat="43.475" lon="6.19265">
        <ele>163</ele>
        <time>2024-01-28T14:13:18+01:00</time>
      </trkpt>
      <trkpt lat="43.47501" lon="6.19252">
        <ele>163</ele>
        <time>2024-01-28T14:13:27+01:00</time>
      </trkpt>
      <trkpt lat="43.47498" lon="6.1924">
        <ele>165</ele>
        <time>2024-01-28T14:13:35+01:00</time>
      </trkpt>
      <trkpt lat="43.47495" lon="6.19228">
        <ele>166</ele>
        <time>2024-01-28T14:13:42+01:00</time>
      </trkpt>
      <trkpt lat="43.47492" lon="6.19216">
        <ele>166</ele>
        <time>2024-01-28T14:13:50+01:00</time>
      </trkpt>
      <trkpt lat="43.4749" lon="6.19204">
        <ele>166</ele>
        <time>2024-01-28T14:13:57+01:00</time>
      </trkpt>
      <trkpt lat="43.47492" lon="6.19191">
        <ele>166</ele>
        <time>2024-01-28T14:14:05+01:00</time>
      </trkpt>
      <trkpt lat="43.47492" lon="6.19179">
        <ele>166</ele>
        <time>2024-01-28T14:14:13+01:00</time>
      </trkpt>
      <trkpt lat="43.47494" lon="6.19165">
        <ele>166</ele>
        <time>2024-01-28T14:14:23+01:00</time>
      </trkpt>
      <trkpt lat="43.47496" lon="6.19152">
        <ele>166</ele>
        <time>2024-01-28T14:14:33+01:00</time>
      </trkpt>
      <trkpt lat="43.47494" lon="6.19139">
        <ele>165</ele>
        <time>2024-01-28T14:14:41+01:00</time>
      </trkpt>
      <trkpt lat="43.47492" lon="6.19126">
        <ele>165</ele>
        <time>2024-01-28T14:14:49+01:00</time>
      </trkpt>
      <trkpt lat="43.47487" lon="6.19114">
        <ele>166</ele>
        <time>2024-01-28T14:14:59+01:00</time>
      </trkpt>
      <trkpt lat="43.47487" lon="6.19101">
        <ele>165</ele>
        <time>2024-01-28T14:15:06+01:00</time>
      </trkpt>
      <trkpt lat="43.47487" lon="6.19088">
        <ele>164</ele>
        <time>2024-01-28T14:15:17+01:00</time>
      </trkpt>
      <trkpt lat="43.4749" lon="6.19076">
        <ele>162</ele>
        <time>2024-01-28T14:15:28+01:00</time>
      </trkpt>
      <trkpt lat="43.47493" lon="6.19064">
        <ele>161</ele>
        <time>2024-01-28T14:15:37+01:00</time>
      </trkpt>
      <trkpt lat="43.47494" lon="6.1905">
        <ele>159</ele>
        <time>2024-01-28T14:15:46+01:00</time>
      </trkpt>
      <trkpt lat="43.47493" lon="6.19038">
        <ele>158</ele>
        <time>2024-01-28T14:15:54+01:00</time>
      </trkpt>
      <trkpt lat="43.47491" lon="6.19025">
        <ele>157</ele>
        <time>2024-01-28T14:16:02+01:00</time>
      </trkpt>
      <trkpt lat="43.47491" lon="6.19012">
        <ele>155</ele>
        <time>2024-01-28T14:16:12+01:00</time>
      </trkpt>
      <trkpt lat="43.47491" lon="6.18998">
        <ele>154</ele>
        <time>2024-01-28T14:16:21+01:00</time>
      </trkpt>
      <trkpt lat="43.47493" lon="6.18986">
        <ele>153</ele>
        <time>2024-01-28T14:16:30+01:00</time>
      </trkpt>
      <trkpt lat="43.47497" lon="6.18974">
        <ele>152</ele>
        <time>2024-01-28T14:16:39+01:00</time>
      </trkpt>
      <trkpt lat="43.47501" lon="6.18961">
        <ele>150</ele>
        <time>2024-01-28T14:16:49+01:00</time>
      </trkpt>
      <trkpt lat="43.47505" lon="6.18949">
        <ele>149</ele>
        <time>2024-01-28T14:16:58+01:00</time>
      </trkpt>
      <trkpt lat="43.47506" lon="6.1894">
        <ele>148</ele>
        <time>2024-01-28T14:17:07+01:00</time>
      </trkpt>
      <trkpt lat="43.47493" lon="6.18923">
        <ele>148</ele>
        <time>2024-01-28T14:17:21+01:00</time>
      </trkpt>
      <trkpt lat="43.47478" lon="6.18901">
        <ele>148</ele>
        <time>2024-01-28T14:17:37+01:00</time>
      </trkpt>
      <trkpt lat="43.47474" lon="6.18874">
        <ele>148</ele>
        <time>2024-01-28T14:17:56+01:00</time>
      </trkpt>
      <trkpt lat="43.4747" lon="6.18849">
        <ele>148</ele>
        <time>2024-01-28T14:18:17+01:00</time>
      </trkpt>
      <trkpt lat="43.47465" lon="6.18823">
        <ele>148</ele>
        <time>2024-01-28T14:18:35+01:00</time>
      </trkpt>
      <trkpt lat="43.47458" lon="6.18798">
        <ele>147</ele>
        <time>2024-01-28T14:18:52+01:00</time>
      </trkpt>
      <trkpt lat="43.47452" lon="6.18773">
        <ele>147</ele>
        <time>2024-01-28T14:19:09+01:00</time>
      </trkpt>
      <trkpt lat="43.47443" lon="6.1875">
        <ele>146</ele>
        <time>2024-01-28T14:19:26+01:00</time>
      </trkpt>
      <trkpt lat="43.47434" lon="6.18726">
        <ele>145</ele>
        <time>2024-01-28T14:19:44+01:00</time>
      </trkpt>
      <trkpt lat="43.47415" lon="6.18699">
        <ele>143</ele>
        <time>2024-01-28T14:20:35+01:00</time>
      </trkpt>
      <trkpt lat="43.47398" lon="6.18668">
        <ele>140</ele>
        <time>2024-01-28T14:21:01+01:00</time>
      </trkpt>
      <trkpt lat="43.47392" lon="6.18644">
        <ele>138</ele>
        <time>2024-01-28T14:21:25+01:00</time>
      </trkpt>
      <trkpt lat="43.4739" lon="6.18631">
        <ele>137</ele>
        <time>2024-01-28T14:21:34+01:00</time>
      </trkpt>
      <trkpt lat="43.47385" lon="6.18619">
        <ele>135</ele>
        <time>2024-01-28T14:21:44+01:00</time>
      </trkpt>
      <trkpt lat="43.474" lon="6.1861">
        <ele>133</ele>
        <time>2024-01-28T15:08:10+01:00</time>
      </trkpt>
      <trkpt lat="43.47411" lon="6.18603">
        <ele>133</ele>
        <time>2024-01-28T15:08:21+01:00</time>
      </trkpt>
      <trkpt lat="43.47423" lon="6.18597">
        <ele>133</ele>
        <time>2024-01-28T15:08:30+01:00</time>
      </trkpt>
      <trkpt lat="43.47435" lon="6.18585">
        <ele>131</ele>
        <time>2024-01-28T15:08:38+01:00</time>
      </trkpt>
      <trkpt lat="43.47448" lon="6.18582">
        <ele>131</ele>
        <time>2024-01-28T15:08:46+01:00</time>
      </trkpt>
      <trkpt lat="43.47455" lon="6.18572">
        <ele>130</ele>
        <time>2024-01-28T15:09:00+01:00</time>
      </trkpt>
      <trkpt lat="43.47459" lon="6.18554">
        <ele>128</ele>
        <time>2024-01-28T15:09:08+01:00</time>
      </trkpt>
      <trkpt lat="43.47459" lon="6.18534">
        <ele>124</ele>
        <time>2024-01-28T15:09:16+01:00</time>
      </trkpt>
      <trkpt lat="43.47458" lon="6.18493">
        <ele>128</ele>
        <time>2024-01-28T15:09:24+01:00</time>
      </trkpt>
      <trkpt lat="43.47455" lon="6.18477">
        <ele>129</ele>
        <time>2024-01-28T15:09:35+01:00</time>
      </trkpt>
      <trkpt lat="43.47457" lon="6.18462">
        <ele>131</ele>
        <time>2024-01-28T15:10:00+01:00</time>
      </trkpt>
      <trkpt lat="43.47463" lon="6.18449">
        <ele>132</ele>
        <time>2024-01-28T15:10:15+01:00</time>
      </trkpt>
      <trkpt lat="43.47465" lon="6.18432">
        <ele>133</ele>
        <time>2024-01-28T15:10:18+01:00</time>
      </trkpt>
      <trkpt lat="43.47476" lon="6.18435">
        <ele>133</ele>
        <time>2024-01-28T15:10:20+01:00</time>
      </trkpt>
      <trkpt lat="43.47488" lon="6.18434">
        <ele>133</ele>
        <time>2024-01-28T15:10:25+01:00</time>
      </trkpt>
      <trkpt lat="43.47498" lon="6.18434">
        <ele>133</ele>
        <time>2024-01-28T15:10:33+01:00</time>
      </trkpt>
      <trkpt lat="43.47512" lon="6.18431">
        <ele>133</ele>
        <time>2024-01-28T15:10:40+01:00</time>
      </trkpt>
      <trkpt lat="43.47529" lon="6.18433">
        <ele>134</ele>
        <time>2024-01-28T15:10:49+01:00</time>
      </trkpt>
      <trkpt lat="43.47533" lon="6.18416">
        <ele>135</ele>
        <time>2024-01-28T15:10:57+01:00</time>
      </trkpt>
      <trkpt lat="43.47533" lon="6.18404">
        <ele>135</ele>
        <time>2024-01-28T15:11:07+01:00</time>
      </trkpt>
      <trkpt lat="43.47553" lon="6.18406">
        <ele>137</ele>
        <time>2024-01-28T15:11:16+01:00</time>
      </trkpt>
      <trkpt lat="43.47568" lon="6.18408">
        <ele>137</ele>
        <time>2024-01-28T15:11:23+01:00</time>
      </trkpt>
      <trkpt lat="43.47581" lon="6.1841">
        <ele>138</ele>
        <time>2024-01-28T15:11:31+01:00</time>
      </trkpt>
      <trkpt lat="43.47596" lon="6.18415">
        <ele>139</ele>
        <time>2024-01-28T15:12:48+01:00</time>
      </trkpt>
      <trkpt lat="43.47606" lon="6.18413">
        <ele>140</ele>
        <time>2024-01-28T15:13:07+01:00</time>
      </trkpt>
      <trkpt lat="43.47618" lon="6.18406">
        <ele>140</ele>
        <time>2024-01-28T15:13:16+01:00</time>
      </trkpt>
      <trkpt lat="43.47627" lon="6.18399">
        <ele>141</ele>
        <time>2024-01-28T15:13:26+01:00</time>
      </trkpt>
      <trkpt lat="43.47637" lon="6.18393">
        <ele>141</ele>
        <time>2024-01-28T15:14:50+01:00</time>
      </trkpt>
      <trkpt lat="43.47645" lon="6.1839">
        <ele>141</ele>
        <time>2024-01-28T15:15:11+01:00</time>
      </trkpt>
      <trkpt lat="43.47654" lon="6.18408">
        <ele>140</ele>
        <time>2024-01-28T15:15:30+01:00</time>
      </trkpt>
      <trkpt lat="43.47662" lon="6.18429">
        <ele>139</ele>
        <time>2024-01-28T15:16:29+01:00</time>
      </trkpt>
      <trkpt lat="43.47669" lon="6.18426">
        <ele>140</ele>
        <time>2024-01-28T15:16:38+01:00</time>
      </trkpt>
      <trkpt lat="43.47677" lon="6.18421">
        <ele>140</ele>
        <time>2024-01-28T15:16:57+01:00</time>
      </trkpt>
      <trkpt lat="43.47692" lon="6.18415">
        <ele>140</ele>
        <time>2024-01-28T15:17:09+01:00</time>
      </trkpt>
      <trkpt lat="43.47696" lon="6.18434">
        <ele>139</ele>
        <time>2024-01-28T15:40:38+01:00</time>
      </trkpt>
      <trkpt lat="43.477" lon="6.18451">
        <ele>139</ele>
        <time>2024-01-28T15:41:29+01:00</time>
      </trkpt>
      <trkpt lat="43.47709" lon="6.1847">
        <ele>138</ele>
        <time>2024-01-28T15:41:42+01:00</time>
      </trkpt>
      <trkpt lat="43.47717" lon="6.18477">
        <ele>136</ele>
        <time>2024-01-28T15:41:50+01:00</time>
      </trkpt>
      <trkpt lat="43.47726" lon="6.18472">
        <ele>135</ele>
        <time>2024-01-28T15:41:57+01:00</time>
      </trkpt>
      <trkpt lat="43.47733" lon="6.1846">
        <ele>134</ele>
        <time>2024-01-28T15:42:05+01:00</time>
      </trkpt>
      <trkpt lat="43.47739" lon="6.1845">
        <ele>133</ele>
        <time>2024-01-28T15:42:14+01:00</time>
      </trkpt>
      <trkpt lat="43.47742" lon="6.18435">
        <ele>134</ele>
        <time>2024-01-28T15:42:24+01:00</time>
      </trkpt>
      <trkpt lat="43.47743" lon="6.18428">
        <ele>135</ele>
        <time>2024-01-28T15:42:37+01:00</time>
      </trkpt>
      <trkpt lat="43.47742" lon="6.18413">
        <ele>136</ele>
        <time>2024-01-28T15:44:31+01:00</time>
      </trkpt>
    </trkseg>
  </trk>
</gpx>